M I D A S
Marine Information and Data Acquisition System
Tripno 684 of the Zeeleeuw from 2004-04-19 06:35:39 to 2004-04-19 14:55:05
Back to CruiseResearch ActivitiesStationsMapUnderway DataData graphs

EquipmentUnitsComment
TimeDGPSUTC
LatitudeDGPSDM.mWGS84
LongitudeDGPSDM.mWGS84
TemperatureSBE03/SBE38deg celciusITS90
ConductivitySBE21S/mITS90
SalinitySBE21 Practical Salinity Units
ChlorophylAChelsea fluorimeterg/lCalibrated in Aceton
Missing or incorrect values are displayed as -999
Sea surface data collected by the RV Zeeleeuw from 2004-04-19 06:35:39 to 2004-04-19 14:55:05
                                                                                    Next 1000 lines
Time Latitude Longitude Temperature Conductivity Salinity ChlorophylA
2004-04-19 06:35:45 51°13.649 2°55.911 15.306143 3.985588 28.570618 -0.848668
2004-04-19 06:35:50 51°13.652 2°55.901 15.307355 3.985588 28.571577 -0.848668
2004-04-19 06:35:55 51°13.654 2°55.89 15.307702 3.985588 28.571577 -0.814958
2004-04-19 06:36:00 51°13.657 2°55.879 15.307702 3.985588 28.571577 -0.814958
2004-04-19 06:36:05 51°13.659 2°55.869 15.308221 3.985483 28.570736 -2.668976
2004-04-19 06:36:10 51°13.661 2°55.857 15.308091 3.985377 28.570854 -2.668976
2004-04-19 06:36:15 51°13.662 2°55.846 15.308568 3.985377 28.571334 -2.668976
2004-04-19 06:36:20 51°13.664 2°55.835 15.309477 3.985377 28.570854 -2.668976
2004-04-19 06:36:25 51°13.664 2°55.823 15.310127 3.985272 28.570972 -2.635266
2004-04-19 06:36:30 51°13.665 2°55.812 15.310127 3.985272 28.570972 -2.635266
2004-04-19 06:36:34 51°13.666 2°55.804 15.31056 3.985272 28.570972 -2.668976
2004-04-19 06:36:40 51°13.667 2°55.793 15.310906 3.985272 28.570972 -2.668976
2004-04-19 06:36:45 51°13.667 2°55.786 15.311686 3.985272 28.570972 -2.668976
2004-04-19 06:36:49 51°13.668 2°55.782 15.313331 3.985167 28.57109 -2.668976
2004-04-19 06:36:54 51°13.668 2°55.777 15.313678 3.985167 28.572049 -2.702685
2004-04-19 06:36:58 51°13.668 2°55.774 15.314327 3.985061 28.572647 -2.668976
2004-04-19 06:37:04 51°13.668 2°55.77 15.314327 3.985061 28.572647 -2.668976
2004-04-19 06:37:09 51°13.668 2°55.768 15.314544 3.985061 28.572647 -2.668976
2004-04-19 06:37:14 51°13.668 2°55.767 15.315193 3.984956 28.571327 -2.668976
2004-04-19 06:37:18 51°13.669 2°55.766 15.31567 3.984956 28.569888 -2.668976
2004-04-19 06:37:24 51°13.67 2°55.767 15.316276 3.984956 28.568929 -2.668976
2004-04-19 06:37:29 51°13.672 2°55.768 15.316276 3.984956 28.568929 -2.668976
2004-04-19 06:37:34 51°13.674 2°55.769 15.317358 3.98485 28.568089 -2.668976
2004-04-19 06:37:39 51°13.677 2°55.771 15.318614 3.98485 28.569048 -2.668976
2004-04-19 06:37:44 51°13.68 2°55.772 15.319653 3.98485 28.570007 -2.668976
2004-04-19 06:37:49 51°13.684 2°55.772 15.320736 3.984745 28.571084 -2.668976
2004-04-19 06:37:54 51°13.688 2°55.772 15.321948 3.98485 28.574323 -2.668976
2004-04-19 06:37:59 51°13.693 2°55.77 15.321948 3.98485 28.574323 -2.668976
2004-04-19 06:38:04 51°13.698 2°55.768 15.323853 3.984745 28.574441 -2.668976
2004-04-19 06:38:09 51°13.704 2°55.764 15.325845 3.98464 28.574559 -2.668976
2004-04-19 06:38:14 51°13.71 2°55.759 15.325628 3.98464 28.57408 -2.668976
2004-04-19 06:38:18 51°13.714 2°55.754 15.325239 3.98464 28.57312 -2.668976
2004-04-19 06:38:24 51°13.72 2°55.747 15.325195 3.98464 28.571682 -2.668976
2004-04-19 06:38:29 51°13.725 2°55.741 15.325195 3.98464 28.571682 -2.668976
2004-04-19 06:38:34 51°13.731 2°55.735 15.324892 3.984429 28.568082 -2.668976
2004-04-19 06:38:39 51°13.736 2°55.728 15.324806 3.984534 28.568443 -2.668976
2004-04-19 06:38:45 51°13.744 2°55.721 15.324936 3.984534 28.567964 -2.668976
2004-04-19 06:38:48 51°13.748 2°55.717 15.324936 3.984429 28.568082 -2.668976
2004-04-19 06:38:54 51°13.756 2°55.708 15.325109 3.984323 28.56772 -2.668976
2004-04-19 06:38:58 51°13.761 2°55.701 15.325109 3.984323 28.56772 -2.668976
2004-04-19 06:39:04 51°13.77 2°55.69 15.325239 3.984323 28.568679 -2.668976
2004-04-19 06:39:09 51°13.777 2°55.682 15.325325 3.984323 28.569638 -2.668976
2004-04-19 06:39:14 51°13.785 2°55.673 15.325325 3.984323 28.569638 -2.668976
2004-04-19 06:39:19 51°13.794 2°55.665 15.325758 3.984323 28.570118 -2.668976
2004-04-19 06:39:24 51°13.802 2°55.656 15.326061 3.984218 28.568798 -2.668976
2004-04-19 06:39:29 51°13.811 2°55.648 15.326061 3.984218 28.568798 -2.668976
2004-04-19 06:39:34 51°13.821 2°55.64 15.326364 3.984218 28.569277 -2.668976
2004-04-19 06:39:39 51°13.83 2°55.632 15.326667 3.984113 28.568916 -2.668976
2004-04-19 06:39:44 51°13.84 2°55.624 15.326927 3.984007 28.568554 -2.668976
2004-04-19 06:39:49 51°13.85 2°55.617 15.3271 3.984113 28.569875 -2.668976
2004-04-19 06:39:54 51°13.86 2°55.609 15.327533 3.983902 28.569152 -2.668976
2004-04-19 06:39:58 51°13.868 2°55.603 15.327533 3.983902 28.569152 -2.668976
2004-04-19 06:40:04 51°13.88 2°55.595 15.328139 3.984007 28.570473 -2.668976
2004-04-19 06:40:09 51°13.89 2°55.587 15.328789 3.984007 28.570473 -2.668976
2004-04-19 06:40:14 51°13.901 2°55.58 15.329438 3.983902 28.569632 -2.668976
2004-04-19 06:40:20 51°13.913 2°55.571 15.329914 3.983902 28.570111 -2.668976
2004-04-19 06:40:24 51°13.922 2°55.565 15.330434 3.983902 28.569632 -0.916087
2004-04-19 06:40:29 51°13.932 2°55.557 15.330434 3.983902 28.569632 -0.916087
2004-04-19 06:40:34 51°13.943 2°55.549 15.330867 3.983796 28.56927 -0.814958
2004-04-19 06:40:38 51°13.951 2°55.543 15.331256 3.983796 28.56975 -0.814958
2004-04-19 06:40:44 51°13.964 2°55.535 15.331689 3.983796 28.56975 -0.848668
2004-04-19 06:40:49 51°13.975 2°55.527 15.331776 3.983796 28.57023 -0.814958
2004-04-19 06:40:54 51°13.986 2°55.52 15.332685 3.983796 28.56975 -0.848668
2004-04-19 06:41:00 51°13.999 2°55.511 15.332685 3.983796 28.56975 -0.848668
2004-04-19 06:41:04 51°14.007 2°55.505 15.333594 3.983585 28.568548 -0.814958
2004-04-19 06:41:09 51°14.019 2°55.498 15.334114 3.983586 28.569027 -0.814958
2004-04-19 06:41:14 51°14.03 2°55.49 15.334633 3.983586 28.569027 -0.848668
2004-04-19 06:41:18 51°14.039 2°55.484 15.335499 3.983586 28.569507 -0.814958
2004-04-19 06:41:24 51°14.052 2°55.474 15.335802 3.98348 28.568666 -0.814958
2004-04-19 06:41:29 51°14.063 2°55.466 15.335802 3.98348 28.568666 -0.814958
2004-04-19 06:41:34 51°14.075 2°55.458 15.336408 3.98348 28.568666 -0.848668
2004-04-19 06:41:38 51°14.084 2°55.451 15.336927 3.98348 28.568666 -0.848668
2004-04-19 06:41:45 51°14.099 2°55.439 15.33749 3.98348 28.569146 -0.848668
2004-04-19 06:41:49 51°14.109 2°55.432 15.338096 3.983375 28.568305 -0.814958
2004-04-19 06:41:54 51°14.12 2°55.423 15.338746 3.983375 28.568305 -0.814958
2004-04-19 06:41:59 51°14.131 2°55.414 15.338746 3.983375 28.568305 -0.814958
2004-04-19 06:42:04 51°14.142 2°55.404 15.339525 3.983269 28.567463 -0.814958
2004-04-19 06:42:09 51°14.154 2°55.394 15.340001 3.983375 28.568305 -0.814958
2004-04-19 06:42:14 51°14.165 2°55.383 15.340867 3.983269 28.567943 -0.814958
2004-04-19 06:42:19 51°14.176 2°55.373 15.341213 3.983269 28.567463 -0.848668
2004-04-19 06:42:24 51°14.187 2°55.361 15.342165 3.983269 28.567943 -0.848668
2004-04-19 06:42:29 51°14.199 2°55.349 15.342165 3.983269 28.567943 -0.848668
2004-04-19 06:42:34 51°14.21 2°55.337 15.342771 3.983164 28.567582 -0.814958
2004-04-19 06:42:39 51°14.221 2°55.324 15.34342 3.983269 28.568902 -0.814958
2004-04-19 06:42:44 51°14.232 2°55.31 15.343983 3.983164 28.568061 -0.848668
2004-04-19 06:42:49 51°14.242 2°55.296 15.344676 3.983164 28.568061 -0.814958
2004-04-19 06:42:54 51°14.252 2°55.28 15.345888 3.983164 28.568541 -0.848668
2004-04-19 06:43:00 51°14.264 2°55.261 15.345888 3.983164 28.568541 -0.848668
2004-04-19 06:43:04 51°14.272 2°55.248 15.346147 3.983058 28.5677 -0.848668
2004-04-19 06:43:09 51°14.281 2°55.23 15.34658 3.983058 28.56722 -0.848668
2004-04-19 06:43:14 51°14.291 2°55.212 15.346797 3.983058 28.56722 -0.814958
2004-04-19 06:43:18 51°14.298 2°55.197 15.347316 3.982953 28.5659 -0.848668
2004-04-19 06:43:24 51°14.309 2°55.174 15.347359 3.983058 28.56722 -0.814958
2004-04-19 06:43:29 51°14.318 2°55.155 15.347359 3.983058 28.56722 -0.814958
2004-04-19 06:43:34 51°14.327 2°55.135 15.348095 3.982953 28.566379 -0.848668
2004-04-19 06:43:39 51°14.336 2°55.115 15.347922 3.982953 28.566379 -0.848668
2004-04-19 06:43:44 51°14.345 2°55.095 15.348138 3.982848 28.566018 -0.814958
2004-04-19 06:43:49 51°14.353 2°55.074 15.349047 3.982953 28.566859 -0.814958
2004-04-19 06:43:54 51°14.362 2°55.052 15.350519 3.982848 28.565538 -0.848668
2004-04-19 06:44:00 51°14.373 2°55.025 15.350519 3.982848 28.565538 -0.848668
2004-04-19 06:44:04 51°14.38 2°55.006 15.351774 3.982953 28.566859 -0.814958
2004-04-19 06:44:09 51°14.389 2°54.983 15.353115 3.982848 28.566018 -0.848668
2004-04-19 06:44:14 51°14.397 2°54.958 15.353894 3.982848 28.566497 -0.848668
2004-04-19 06:44:19 51°14.406 2°54.932 15.354067 3.982848 28.566018 -0.814958
2004-04-19 06:44:24 51°14.413 2°54.905 15.355149 3.982742 28.565656 -0.814958
2004-04-19 06:44:29 51°14.42 2°54.878 15.355149 3.982742 28.565656 -0.814958
2004-04-19 06:44:34 51°14.425 2°54.849 15.356275 3.982742 28.566616 -0.814958
2004-04-19 06:44:38 51°14.429 2°54.826 15.357227 3.982848 28.567457 -0.814958
2004-04-19 06:44:44 51°14.433 2°54.79 15.357962 3.982742 28.566616 -0.814958
2004-04-19 06:44:49 51°14.436 2°54.76 15.621471 3.982848 28.567937 -0.848668
2004-04-19 06:44:54 51°14.436 2°54.729 15.63492 2.087374 13.858333 -0.848668
2004-04-19 06:45:00 51°14.435 2°54.693 15.63492 2.087374 13.858333 -0.848668
2004-04-19 06:45:04 51°14.434 2°54.668 15.612073 0.060778 0.325971 -0.814958
2004-04-19 06:45:08 51°14.431 2°54.644 15.533 0.072836 0.393043 -0.848668
2004-04-19 06:45:13 51°14.427 2°54.613 13.568981 0.077723 0.420212 15.432973
2004-04-19 06:45:19 51°14.423 2°54.576 12.480968 3.911067 28.378577 14.758785
2004-04-19 06:45:24 51°14.418 2°54.546 11.505711 3.941199 27.818183 10.039469
2004-04-19 06:45:29 51°14.412 2°54.516 11.505711 3.941199 27.818183 10.039469
2004-04-19 06:45:34 51°14.406 2°54.486 10.802258 3.998866 28.373179 6.398853
2004-04-19 06:45:39 51°14.399 2°54.457 10.555504 3.686277 27.638228 5.320153
2004-04-19 06:45:44 51°14.391 2°54.429 10.489295 3.345062 26.37398 12.635093
2004-04-19 06:45:49 51°14.383 2°54.4 10.411321 3.236809 26.231205 33.973144
2004-04-19 06:45:54 51°14.375 2°54.372 10.364231 3.257778 27.261661 66.401589
2004-04-19 06:45:59 51°14.367 2°54.344 10.364231 3.257778 27.261661 66.401589
2004-04-19 06:46:04 51°14.359 2°54.316 10.245609 3.328877 28.504323 68.120768
2004-04-19 06:46:09 51°14.351 2°54.289 10.212706 3.360376 29.241457 68.087059
2004-04-19 06:46:14 51°14.342 2°54.261 10.174454 3.365646 29.52169 68.053349
2004-04-19 06:46:18 51°14.335 2°54.24 10.149705 3.367543 29.673517 68.01964
2004-04-19 06:46:24 51°14.324 2°54.207 10.081069 3.382081 29.918038 68.01964
2004-04-19 06:46:29 51°14.315 2°54.18 10.081069 3.382081 29.918038 68.01964
2004-04-19 06:46:34 51°14.306 2°54.153 10.038755 3.362701 29.83399 68.01964
2004-04-19 06:46:40 51°14.295 2°54.12 10.029989 3.398199 30.235835 68.01964
2004-04-19 06:46:44 51°14.288 2°54.099 10.057924 3.415792 30.457117 68.01964
2004-04-19 06:46:49 51°14.279 2°54.072 9.995477 3.418426 30.537116 68.053349
2004-04-19 06:46:54 51°14.27 2°54.044 9.975164 3.439811 30.809766 68.087059
2004-04-19 06:46:59 51°14.261 2°54.017 9.975164 3.439811 30.809766 68.087059
2004-04-19 06:47:04 51°14.253 2°53.989 9.971551 3.452243 30.997956 68.01964
2004-04-19 06:47:09 51°14.244 2°53.962 9.964184 3.46183 31.110088 68.053349
2004-04-19 06:47:14 51°14.236 2°53.934 9.957801 3.473945 31.254582 68.01964
2004-04-19 06:47:18 51°14.229 2°53.911 9.931467 3.475736 31.304534 68.053349
2004-04-19 06:47:24 51°14.22 2°53.878 9.93588 3.487957 31.441455 68.053349
2004-04-19 06:47:29 51°14.212 2°53.85 9.93588 3.487957 31.441455 68.053349
2004-04-19 06:47:34 51°14.204 2°53.822 9.930247 3.496807 31.551849 68.053349
2004-04-19 06:47:39 51°14.196 2°53.793 9.883983 3.498914 31.580714 68.01964
2004-04-19 06:47:44 51°14.188 2°53.766 9.874068 3.500706 31.615608 68.01964
2004-04-19 06:47:49 51°14.18 2°53.738 9.858277 3.508608 31.713989 68.053349
2004-04-19 06:47:54 51°14.171 2°53.71 9.844127 3.49902 31.634051 68.087059
2004-04-19 06:47:59 51°14.162 2°53.682 9.844127 3.49902 31.634051 68.087059
2004-04-19 06:48:04 51°14.154 2°53.654 9.84455 3.52557 31.914283 68.087059
2004-04-19 06:48:09 51°14.145 2°53.626 9.833972 3.52104 31.88587 68.053349
2004-04-19 06:48:14 51°14.136 2°53.598 9.824614 3.51356 31.827045 68.087059
2004-04-19 06:48:20 51°14.126 2°53.564 9.82767 3.533262 32.037531 68.01964
2004-04-19 06:48:24 51°14.12 2°53.541 9.831197 3.541059 32.130485 68.087059
2004-04-19 06:48:29 51°14.112 2°53.512 9.831197 3.541059 32.130485 68.087059
2004-04-19 06:48:34 51°14.104 2°53.483 9.817418 3.53242 32.0542 68.01964
2004-04-19 06:48:39 51°14.096 2°53.454 9.830633 3.520093 31.93428 68.053349
2004-04-19 06:48:44 51°14.088 2°53.425 9.816618 3.548435 32.227981 68.087059
2004-04-19 06:48:49 51°14.08 2°53.396 9.81897 3.522516 31.970179 68.053349
2004-04-19 06:48:54 51°14.072 2°53.367 9.817277 3.546222 32.212165 68.053349
2004-04-19 06:48:58 51°14.065 2°53.344 9.817277 3.546222 32.212165 68.053349
2004-04-19 06:49:04 51°14.054 2°53.31 9.802554 3.543483 32.193921 68.053349
2004-04-19 06:49:09 51°14.043 2°53.283 9.799355 3.550437 32.265571 68.087059
2004-04-19 06:49:14 51°14.032 2°53.256 9.798555 3.552649 32.293719 68.087059
2004-04-19 06:49:19 51°14.021 2°53.23 9.797002 3.544537 32.216137 68.053349
2004-04-19 06:49:24 51°14.01 2°53.203 9.795026 3.529681 32.071941 68.01964
2004-04-19 06:49:29 51°13.998 2°53.177 9.795026 3.529681 32.071941 68.01964
2004-04-19 06:49:34 51°13.987 2°53.151 9.794932 3.563924 32.425834 68.087059
2004-04-19 06:49:39 51°13.976 2°53.124 9.79178 3.565609 32.447988 68.01964
2004-04-19 06:49:44 51°13.965 2°53.097 9.798696 3.560131 32.396228 68.053349
2004-04-19 06:49:49 51°13.955 2°53.069 9.802789 3.568876 32.484676 68.053349
2004-04-19 06:49:54 51°13.946 2°53.04 9.808011 3.555495 32.353721 68.087059
2004-04-19 06:49:58 51°13.939 2°53.016 9.808011 3.555495 32.353721 68.087059
2004-04-19 06:50:04 51°13.93 2°52.98 9.804812 3.56287 32.431956 68.087059
2004-04-19 06:50:09 51°13.923 2°52.95 9.810598 3.54243 32.227456 68.053349
2004-04-19 06:50:14 51°13.917 2°52.92 9.805141 3.566558 32.469264 68.053349
2004-04-19 06:50:20 51°13.909 2°52.884 9.794791 3.561079 32.410921 68.087059
2004-04-19 06:50:24 51°13.903 2°52.859 9.801801 3.561079 32.408004 68.087059
2004-04-19 06:50:29 51°13.896 2°52.83 9.801801 3.561079 32.408004 68.087059
2004-04-19 06:50:34 51°13.888 2°52.8 9.801801 3.558972 32.387423 68.01964
2004-04-19 06:50:38 51°13.88 2°52.777 9.789992 3.557391 32.370713 68.087059
2004-04-19 06:50:44 51°13.868 2°52.743 9.786275 3.555811 32.354733 68.053349
2004-04-19 06:50:49 51°13.858 2°52.715 9.786557 3.577516 32.582356 68.087059
2004-04-19 06:50:54 51°13.847 2°52.687 9.787169 3.556443 32.369863 68.087059
2004-04-19 06:50:59 51°13.836 2°52.659 9.787169 3.556443 32.369863 68.087059
2004-04-19 06:51:04 51°13.826 2°52.632 9.784063 3.578675 32.594823 68.053349
2004-04-19 06:51:09 51°13.815 2°52.604 9.786839 3.574566 32.55982 68.053349
2004-04-19 06:51:13 51°13.808 2°52.581 9.789663 3.581731 32.637512 68.053349
2004-04-19 06:51:19 51°13.796 2°52.546 9.78731 3.580888 32.632648 68.087059
2004-04-19 06:51:24 51°13.788 2°52.516 9.793003 3.584049 32.665405 68.053349
2004-04-19 06:51:29 51°13.779 2°52.487 9.793003 3.584049 32.665405 68.053349
2004-04-19 06:51:34 51°13.771 2°52.457 9.793144 3.581625 32.641589 68.120768
2004-04-19 06:51:39 51°13.763 2°52.427 9.793568 3.577621 32.601766 68.053349
2004-04-19 06:51:44 51°13.755 2°52.396 9.787357 3.556759 32.389096 68.087059
2004-04-19 06:51:49 51°13.747 2°52.367 9.791639 3.580782 32.631581 68.087059
2004-04-19 06:51:54 51°13.738 2°52.337 9.780345 3.583522 32.657126 68.087059
2004-04-19 06:51:59 51°13.728 2°52.308 9.780345 3.583522 32.657126 68.087059
2004-04-19 06:52:04 51°13.719 2°52.279 9.780581 3.579307 32.615904 68.120768
2004-04-19 06:52:09 51°13.709 2°52.25 9.78171 3.576568 32.588158 68.01964
2004-04-19 06:52:14 51°13.698 2°52.222 9.778228 3.580572 32.632385 68.087059
2004-04-19 06:52:18 51°13.69 2°52.199 9.776439 3.588158 32.709988 68.053349
2004-04-19 06:52:24 51°13.678 2°52.165 9.775922 3.582258 32.655348 68.087059
2004-04-19 06:52:29 51°13.667 2°52.136 9.775922 3.582258 32.655348 68.087059
2004-04-19 06:52:34 51°13.657 2°52.108 9.774133 3.595007 32.78679 68.053349
2004-04-19 06:52:39 51°13.647 2°52.079 9.778792 3.58563 32.694671 68.087059
2004-04-19 06:52:44 51°13.637 2°52.05 9.774369 3.605439 32.898513 68.053349
2004-04-19 06:52:49 51°13.628 2°52.021 9.773992 3.602699 32.870719 68.053349
2004-04-19 06:52:54 51°13.618 2°51.991 9.772062 3.603121 32.878699 68.053349
2004-04-19 06:53:00 51°13.608 2°51.956 9.772062 3.603121 32.878699 68.053349
2004-04-19 06:53:04 51°13.601 2°51.932 9.770603 3.588685 32.73302 68.053349
2004-04-19 06:53:09 51°13.592 2°51.902 9.771874 3.594691 32.793928 68.053349
2004-04-19 06:53:14 51°13.583 2°51.872 9.773004 3.600803 32.857402 68.053349
2004-04-19 06:53:18 51°13.575 2°51.849 9.773851 3.580783 32.654376 68.087059
2004-04-19 06:53:24 51°13.563 2°51.813 9.767873 3.593005 32.779045 68.087059
2004-04-19 06:53:29 51°13.553 2°51.784 9.767873 3.593005 32.779045 68.087059
2004-04-19 06:53:34 51°13.543 2°51.755 9.771168 3.588475 32.733834 68.087059
2004-04-19 06:53:40 51°13.531 2°51.721 9.769662 3.59585 32.81012 68.053349
2004-04-19 06:53:44 51°13.523 2°51.698 9.769662 3.611024 32.964095 68.087059
2004-04-19 06:53:48 51°13.514 2°51.675 9.769427 3.60565 32.913259 68.087059
2004-04-19 06:53:54 51°13.502 2°51.64 9.76792 3.613763 32.99637 68.087059
2004-04-19 06:53:59 51°13.492 2°51.611 9.76792 3.613763 32.99637 68.087059
2004-04-19 06:54:04 51°13.482 2°51.582 9.767356 3.615976 33.018839 68.053349
2004-04-19 06:54:09 51°13.472 2°51.552 9.768391 3.610813 32.968644 68.120768
2004-04-19 06:54:14 51°13.463 2°51.523 9.767167 3.618084 33.041731 68.087059
2004-04-19 06:54:20 51°13.452 2°51.487 9.765002 3.618611 33.048572 68.087059
2004-04-19 06:54:24 51°13.444 2°51.463 9.766932 3.612499 32.987993 68.087059
2004-04-19 06:54:29 51°13.435 2°51.433 9.766932 3.612499 32.987993 68.087059
2004-04-19 06:54:34 51°13.425 2°51.404 9.765567 3.62114 33.075005 68.087059
2004-04-19 06:54:38 51°13.417 2°51.38 9.764861 3.618821 33.051458 68.053349
2004-04-19 06:54:44 51°13.405 2°51.345 9.768297 3.618927 33.054764 68.120768
2004-04-19 06:54:48 51°13.397 2°51.322 9.767591 3.621983 33.085807 68.053349
2004-04-19 06:54:54 51°13.384 2°51.288 9.765002 3.620402 33.069749 68.053349
2004-04-19 06:54:59 51°13.374 2°51.259 9.765002 3.620402 33.069749 68.053349
2004-04-19 06:55:04 51°13.363 2°51.23 9.766461 3.627041 33.137197 68.053349
2004-04-19 06:55:09 51°13.353 2°51.201 9.765237 3.62546 33.121136 68.087059
2004-04-19 06:55:14 51°13.344 2°51.171 9.763496 3.625565 33.124448 68.087059
2004-04-19 06:55:19 51°13.334 2°51.141 9.768532 3.635471 33.226621 68.053349
2004-04-19 06:55:24 51°13.324 2°51.112 9.767356 3.630413 33.175953 68.053349
2004-04-19 06:55:29 51°13.314 2°51.082 9.767356 3.630413 33.175953 68.053349
2004-04-19 06:55:34 51°13.305 2°51.053 9.764249 3.639264 33.265941 68.087059
2004-04-19 06:55:38 51°13.296 2°51.029 9.76472 3.635365 33.226299 68.053349
2004-04-19 06:55:44 51°13.284 2°50.994 9.764437 3.624828 33.120687 68.053349
2004-04-19 06:55:49 51°13.274 2°50.964 9.76792 3.641161 33.284478 68.087059
2004-04-19 06:55:54 51°13.264 2°50.935 9.764531 3.637262 33.244833 68.087059
2004-04-19 06:55:58 51°13.256 2°50.912 9.764531 3.637262 33.244833 68.087059
2004-04-19 06:56:04 51°13.244 2°50.877 9.765426 3.640423 33.278478 68.120768
2004-04-19 06:56:09 51°13.233 2°50.847 9.763213 3.635997 33.234226 68.120768
2004-04-19 06:56:14 51°13.224 2°50.818 9.76166 3.641056 33.28716 68.120768
2004-04-19 06:56:19 51°13.214 2°50.789 9.76632 3.642742 33.302054 68.087059
2004-04-19 06:56:24 51°13.204 2°50.759 9.762225 3.643374 33.310739 68.120768
2004-04-19 06:56:29 51°13.193 2°50.73 9.762225 3.643374 33.310739 68.120768
2004-04-19 06:56:34 51°13.183 2°50.701 9.763166 3.641688 33.29359 68.120768
2004-04-19 06:56:40 51°13.17 2°50.667 9.760389 3.642847 33.306131 68.154477
2004-04-19 06:56:44 51°13.162 2°50.643 9.762507 3.643901 33.317601 68.087059
2004-04-19 06:56:49 51°13.151 2°50.615 9.759824 3.645587 33.334751 68.120768
2004-04-19 06:56:54 51°13.141 2°50.586 9.760719 3.643479 33.314065 68.087059
2004-04-19 06:56:59 51°13.13 2°50.557 9.760719 3.643479 33.314065 68.087059
2004-04-19 06:57:04 51°13.12 2°50.528 9.76053 3.64095 33.28759 68.087059
2004-04-19 06:57:09 51°13.109 2°50.499 9.757094 3.633152 33.210544 68.154477
2004-04-19 06:57:14 51°13.099 2°50.471 9.756858 3.632731 33.20476 68.120768
2004-04-19 06:57:18 51°13.091 2°50.448 9.757565 3.647589 33.357377 68.053349
2004-04-19 06:57:24 51°13.078 2°50.413 9.755022 3.644955 33.332832 68.087059
2004-04-19 06:57:29 51°13.067 2°50.385 9.755022 3.644955 33.332832 68.087059
2004-04-19 06:57:34 51°13.057 2°50.356 9.750879 3.648432 33.368966 68.087059
2004-04-19 06:57:39 51°13.046 2°50.327 9.752103 3.644638 33.331119 68.120768
2004-04-19 06:57:44 51°13.036 2°50.299 9.745653 3.654017 33.428066 68.120768
2004-04-19 06:57:49 51°13.025 2°50.27 9.745794 3.649064 33.378412 68.120768
2004-04-19 06:57:54 51°13.015 2°50.241 9.738637 3.650434 33.393861 68.087059
2004-04-19 06:57:58 51°13.006 2°50.218 9.738637 3.650434 33.393861 68.087059
2004-04-19 06:58:04 51°12.994 2°50.183 9.738355 3.652542 33.417574 68.154477
2004-04-19 06:58:09 51°12.984 2°50.154 9.737742 3.655809 33.453095 68.120768
2004-04-19 06:58:13 51°12.975 2°50.131 9.739438 3.649275 33.388091 68.120768
2004-04-19 06:58:18 51°12.965 2°50.102 9.735105 3.659286 33.49304 68.120768
2004-04-19 06:58:24 51°12.952 2°50.067 9.735576 3.655492 33.457428 68.120768
2004-04-19 06:58:29 51°12.942 2°50.039 9.735576 3.655492 33.457428 68.120768
2004-04-19 06:58:34 51°12.931 2°50.01 9.727947 3.655493 33.461205 68.154477
2004-04-19 06:58:38 51°12.923 2°49.986 9.731385 3.642847 33.333202 68.120768
2004-04-19 06:58:44 51°12.911 2°49.952 9.729407 3.650434 33.411203 68.120768
2004-04-19 06:58:49 51°12.9 2°49.923 9.725545 3.662026 33.53003 68.120768
2004-04-19 06:58:54 51°12.89 2°49.893 9.72352 3.658232 33.49365 68.154477
2004-04-19 06:58:58 51°12.882 2°49.87 9.72352 3.658232 33.49365 68.154477
2004-04-19 06:59:04 51°12.869 2°49.835 9.72578 3.653069 33.444829 68.154477
2004-04-19 06:59:09 51°12.859 2°49.806 9.727617 3.649908 33.414138 68.188187
2004-04-19 06:59:14 51°12.849 2°49.777 9.727382 3.660656 33.5244 68.188187
2004-04-19 06:59:19 51°12.839 2°49.747 9.728277 3.661605 33.53558 68.154477
2004-04-19 06:59:24 51°12.828 2°49.718 9.730678 3.663185 33.552448 68.188187
2004-04-19 06:59:28 51°12.82 2°49.695 9.730678 3.663185 33.552448 68.188187
2004-04-19 06:59:34 51°12.807 2°49.66 9.729407 3.653807 33.457633 68.188187
2004-04-19 06:59:40 51°12.795 2°49.625 9.732515 3.646746 33.385711 68.154477
2004-04-19 06:59:44 51°12.787 2°49.602 9.734634 3.662448 33.54493 68.154477
2004-04-19 06:59:49 51°12.777 2°49.573 9.73162 3.661078 33.530968 68.188187
2004-04-19 06:59:54 51°12.766 2°49.543 9.735152 3.656546 33.484036 68.188187
2004-04-19 06:59:59 51°12.756 2°49.514 9.730207 3.660656 33.526672 68.154477
2004-04-19 07:00:04 51°12.746 2°49.485 9.730207 3.660656 33.526672 68.154477
2004-04-19 07:00:09 51°12.735 2°49.456 9.727994 3.658127 33.499385 68.188187
2004-04-19 07:00:14 51°12.724 2°49.427 9.729454 3.662975 33.548784 68.221896
2004-04-19 07:00:18 51°12.716 2°49.404 9.729077 3.661288 33.530086 68.221896
2004-04-19 07:00:24 51°12.704 2°49.369 9.733504 3.65623 33.480058 68.120768
2004-04-19 07:00:29 51°12.693 2°49.34 9.733504 3.65623 33.480058 68.120768
2004-04-19 07:00:34 51°12.683 2°49.311 9.729407 3.661815 33.538486 68.188187
2004-04-19 07:00:39 51°12.672 2°49.282 9.731856 3.655809 33.478033 68.154477
2004-04-19 07:00:44 51°12.662 2°49.252 9.730302 3.663185 33.553206 68.188187
2004-04-19 07:00:49 51°12.652 2°49.223 9.730678 3.659181 33.51088 68.188187
2004-04-19 07:00:54 51°12.641 2°49.194 9.731102 3.647695 33.394616 68.188187
2004-04-19 07:00:58 51°12.633 2°49.17 9.731102 3.647695 33.394616 68.188187
2004-04-19 07:01:04 51°12.621 2°49.135 9.729548 3.661499 33.535264 68.154477
2004-04-19 07:01:09 51°12.61 2°49.106 9.727806 3.661078 33.530968 68.154477
2004-04-19 07:01:14 51°12.6 2°49.077 9.729642 3.659286 33.511954 68.188187
2004-04-19 07:01:20 51°12.588 2°49.042 9.731903 3.666241 33.58284 68.154477
2004-04-19 07:01:24 51°12.579 2°49.019 9.732515 3.65328 33.452264 68.188187
2004-04-19 07:01:29 51°12.569 2°48.989 9.732515 3.65328 33.452264 68.188187
2004-04-19 07:01:34 51°12.559 2°48.96 9.734587 3.660235 33.523891 68.188187
2004-04-19 07:01:38 51°12.55 2°48.937 9.738025 3.667927 33.602304 68.221896
2004-04-19 07:01:44 51°12.538 2°48.901 9.738072 3.664345 33.56578 68.154477
2004-04-19 07:01:49 51°12.528 2°48.872 9.740756 3.663923 33.559967 68.154477
2004-04-19 07:01:54 51°12.517 2°48.843 9.740803 3.669719 33.618291 68.221896
2004-04-19 07:01:58 51°12.509 2°48.82 9.740803 3.669719 33.618291 68.221896
2004-04-19 07:02:04 51°12.496 2°48.785 9.741651 3.653491 33.4529 68.154477
2004-04-19 07:02:09 51°12.486 2°48.756 9.744241 3.668349 33.601288 68.221896
2004-04-19 07:02:14 51°12.476 2°48.726 9.745512 3.653701 33.450514 68.154477
2004-04-19 07:02:18 51°12.467 2°48.703 9.745794 3.65349 33.449122 68.188187
2004-04-19 07:02:24 51°12.455 2°48.668 9.748149 3.672353 33.639072 68.221896
2004-04-19 07:02:29 51°12.445 2°48.638 9.748149 3.672353 33.639072 68.221896
2004-04-19 07:02:34 51°12.434 2°48.609 9.746783 3.674988 33.66441 68.221896
2004-04-19 07:02:39 51°12.424 2°48.58 9.750597 3.678571 33.698658 68.188187
2004-04-19 07:02:44 51°12.414 2°48.551 9.753657 3.671616 33.627754 68.221896
2004-04-19 07:02:49 51°12.403 2°48.522 9.754787 3.674356 33.654923 68.221896
2004-04-19 07:02:54 51°12.393 2°48.492 9.755681 3.67699 33.68102 68.188187
2004-04-19 07:02:58 51°12.384 2°48.469 9.755681 3.67699 33.68102 68.188187
2004-04-19 07:03:04 51°12.372 2°48.434 9.756435 3.673723 33.646958 68.221896
2004-04-19 07:03:09 51°12.361 2°48.405 9.757612 3.677412 33.683796 68.188187
2004-04-19 07:03:14 51°12.351 2°48.375 9.758224 3.680257 33.711282 68.188187
2004-04-19 07:03:18 51°12.343 2°48.352 9.758883 3.675515 33.660659 68.221896
2004-04-19 07:03:24 51°12.331 2°48.317 9.759212 3.673407 33.637659 68.221896
2004-04-19 07:03:29 51°12.32 2°48.288 9.759212 3.673407 33.637659 68.221896
2004-04-19 07:03:34 51°12.31 2°48.258 9.760295 3.68521 33.757211 68.188187
2004-04-19 07:03:40 51°12.297 2°48.223 9.761942 3.681311 33.716697 68.154477
2004-04-19 07:03:44 51°12.289 2°48.2 9.763025 3.670351 33.602723 68.221896
2004-04-19 07:03:49 51°12.279 2°48.171 9.763449 3.675304 33.654711 68.188187
2004-04-19 07:03:54 51°12.269 2°48.141 9.762084 3.679203 33.69293 68.188187
2004-04-19 07:03:58 51°12.261 2°48.118 9.762084 3.679203 33.69293 68.188187
2004-04-19 07:04:04 51°12.248 2°48.083 9.762931 3.682681 33.726856 68.221896
2004-04-19 07:04:09 51°12.238 2°48.054 9.762319 3.679624 33.694945 68.221896
2004-04-19 07:04:14 51°12.228 2°48.024 9.762507 3.679414 33.692796 68.188187
2004-04-19 07:04:18 51°12.219 2°48.001 9.766085 3.672353 33.620847 68.188187
2004-04-19 07:04:24 51°12.207 2°47.966 9.767356 3.678887 33.686666 68.188187
2004-04-19 07:04:29 51°12.197 2°47.936 9.767356 3.678887 33.686666 68.188187
2004-04-19 07:04:34 51°12.186 2°47.907 9.767356 3.67288 33.626216 68.188187
2004-04-19 07:04:40 51°12.174 2°47.872 9.769568 3.684577 33.745431 68.255606
2004-04-19 07:04:44 51°12.166 2°47.849 9.768862 3.681521 33.713517 68.221896
2004-04-19 07:04:49 51°12.156 2°47.819 9.769709 3.679203 33.688367 68.255606
2004-04-19 07:04:54 51°12.145 2°47.79 9.770745 3.682575 33.722736 68.188187
2004-04-19 07:05:00 51°12.133 2°47.755 9.770745 3.682575 33.722736 68.188187
2004-04-19 07:05:04 51°12.125 2°47.732 9.773992 3.677938 33.67396 68.188187
2004-04-19 07:05:09 51°12.115 2°47.703 9.773098 3.673618 33.628418 68.221896
2004-04-19 07:05:14 51°12.105 2°47.673 9.774086 3.692376 33.819598 68.188187
2004-04-19 07:05:20 51°12.092 2°47.638 9.775027 3.692797 33.823896 68.255606
2004-04-19 07:05:24 51°12.084 2°47.615 9.775922 3.693535 33.829127 68.188187
2004-04-19 07:05:29 51°12.074 2°47.585 9.775922 3.693535 33.829127 68.188187
2004-04-19 07:05:34 51°12.064 2°47.556 9.776675 3.693535 33.828364 68.255606
2004-04-19 07:05:39 51°12.054 2°47.527 9.776722 3.694167 33.834047 68.221896
2004-04-19 07:05:44 51°12.043 2°47.498 9.776816 3.694378 33.836196 68.154477
2004-04-19 07:05:49 51°12.033 2°47.469 9.779592 3.694799 33.838966 68.221896
2004-04-19 07:05:54 51°12.023 2°47.439 9.780957 3.695326 33.843575 68.188187
2004-04-19 07:06:00 51°12.011 2°47.404 9.780957 3.695326 33.843575 68.188187
2004-04-19 07:06:04 51°12.003 2°47.381 9.778087 3.695432 33.846177 68.221896
2004-04-19 07:06:09 51°11.992 2°47.351 9.78044 3.695221 33.8425 68.221896
2004-04-19 07:06:14 51°11.982 2°47.322 9.779875 3.695326 33.842811 68.188187
2004-04-19 07:06:20 51°11.971 2°47.286 9.780957 3.695221 33.840973 68.188187
2004-04-19 07:06:24 51°11.964 2°47.262 9.784063 3.695432 33.841595 68.188187
2004-04-19 07:06:29 51°11.955 2°47.232 9.784063 3.695432 33.841595 68.188187
2004-04-19 07:06:34 51°11.946 2°47.201 9.781663 3.695642 33.845271 68.255606
2004-04-19 07:06:38 51°11.939 2°47.177 9.784863 3.695748 33.846345 68.221896
2004-04-19 07:06:44 51°11.929 2°47.14 9.786369 3.695959 33.846203 68.255606
2004-04-19 07:06:49 51°11.921 2°47.109 9.785851 3.696275 33.849426 68.188187
2004-04-19 07:06:54 51°11.912 2°47.079 9.785522 3.696486 33.850811 68.255606
2004-04-19 07:07:00 51°11.902 2°47.042 9.785522 3.696486 33.850811 68.255606
2004-04-19 07:07:05 51°11.893 2°47.011 9.785945 3.697012 33.856182 68.221896
2004-04-19 07:07:09 51°11.886 2°46.987 9.786416 3.696907 33.854344 68.188187
2004-04-19 07:07:14 51°11.878 2°46.956 9.788063 3.697012 33.854655 68.188187
2004-04-19 07:07:19 51°11.869 2°46.925 9.788627 3.69775 33.860647 68.255606
2004-04-19 07:07:24 51°11.861 2°46.895 9.791592 3.697855 33.861722 68.255606
2004-04-19 07:07:29 51°11.852 2°46.864 9.791592 3.697855 33.861722 68.255606
2004-04-19 07:07:34 51°11.843 2°46.833 9.789239 3.698382 33.867093 68.221896
2004-04-19 07:07:38 51°11.836 2°46.809 9.792345 3.698699 33.870316 68.221896
2004-04-19 07:07:44 51°11.826 2°46.772 9.791356 3.698804 33.869862 68.255606
2004-04-19 07:07:49 51°11.818 2°46.741 9.792486 3.699225 33.87416 68.188187
2004-04-19 07:07:54 51°11.809 2°46.711 9.793427 3.699542 33.875854 68.255606
2004-04-19 07:07:58 51°11.802 2°46.686 9.793427 3.699542 33.875854 68.255606
2004-04-19 07:08:04 51°11.792 2°46.649 9.79465 3.699858 33.879077 68.221896
2004-04-19 07:08:08 51°11.785 2°46.625 9.796626 3.700068 33.880461 68.255606
2004-04-19 07:08:14 51°11.774 2°46.588 9.795591 3.70049 33.883994 68.221896
2004-04-19 07:08:18 51°11.768 2°46.563 9.796014 3.700806 33.885688 68.55899
2004-04-19 07:08:24 51°11.757 2°46.527 9.794227 3.700701 33.886143 68.525281
2004-04-19 07:08:29 51°11.748 2°46.496 9.794227 3.700701 33.886143 68.525281
2004-04-19 07:08:34 51°11.741 2°46.464 9.796861 3.701122 33.887383 68.390443
2004-04-19 07:08:38 51°11.735 2°46.439 9.797849 3.701649 33.891989 68.087059
2004-04-19 07:08:44 51°11.728 2°46.4 9.799496 3.702176 33.898125 67.749965
2004-04-19 07:08:49 51°11.723 2°46.368 9.798179 3.702387 33.900274 67.581418
2004-04-19 07:08:54 51°11.718 2°46.335 9.801613 3.702914 33.905645 66.502717
2004-04-19 07:08:58 51°11.715 2°46.309 9.801613 3.702914 33.905645 66.502717
2004-04-19 07:09:04 51°11.711 2°46.269 9.802601 3.70323 33.908103 67.042067
2004-04-19 07:09:09 51°11.707 2°46.236 9.803401 3.703652 33.910106 66.738683
2004-04-19 07:09:14 51°11.704 2°46.203 9.805565 3.703862 33.912255 65.693691
2004-04-19 07:09:20 51°11.7 2°46.163 9.805423 3.704811 33.921158 65.929657
2004-04-19 07:09:24 51°11.697 2°46.137 9.803354 3.705021 33.921777 65.997076
2004-04-19 07:09:29 51°11.693 2°46.104 9.803354 3.705021 33.921777 65.997076
2004-04-19 07:09:34 51°11.689 2°46.071 9.802507 3.705548 33.926383 65.693691
2004-04-19 07:09:40 51°11.683 2°46.031 9.805706 3.706075 33.930224 65.120631
2004-04-19 07:09:44 51°11.68 2°46.005 9.801989 3.706391 33.934977 65.76111
2004-04-19 07:09:49 51°11.675 2°45.972 9.801707 3.706708 33.936669 65.255469
2004-04-19 07:09:54 51°11.67 2°45.939 9.801989 3.68405 33.705822 64.783537
2004-04-19 07:09:58 51°11.666 2°45.913 9.801989 3.68405 33.705822 64.783537
2004-04-19 07:10:04 51°11.66 2°45.874 9.800343 3.685315 33.718701 64.61499
2004-04-19 07:10:09 51°11.655 2°45.842 9.799543 3.70734 33.94388 63.401452
2004-04-19 07:10:14 51°11.65 2°45.809 9.800954 3.707551 33.94756 62.96323
2004-04-19 07:10:19 51°11.645 2°45.776 9.799543 3.707445 33.94572 62.626136
2004-04-19 07:10:24 51°11.64 2°45.743 9.799919 3.707235 33.944337 61.7834
2004-04-19 07:10:29 51°11.636 2°45.71 9.799919 3.707235 33.944337 61.7834
2004-04-19 07:10:34 51°11.631 2°45.676 9.799214 3.707762 33.950475 60.468734
2004-04-19 07:10:40 51°11.626 2°45.636 9.797285 3.707867 33.95308 59.895674
2004-04-19 07:10:44 51°11.622 2°45.61 9.795026 3.708078 33.955229 58.951811
2004-04-19 07:10:49 51°11.617 2°45.577 9.793803 3.708288 33.956612 58.715845
2004-04-19 07:10:54 51°11.612 2°45.544 9.794132 3.708499 33.960293 57.569725
2004-04-19 07:10:58 51°11.609 2°45.518 9.794132 3.708499 33.960293 57.569725
2004-04-19 07:11:04 51°11.603 2°45.478 9.792956 3.708288 33.957378 57.670853
2004-04-19 07:11:09 51°11.598 2°45.445 9.792486 3.70871 33.962442 57.434888
2004-04-19 07:11:14 51°11.593 2°45.412 9.792721 3.706602 33.944015 57.165212
2004-04-19 07:11:18 51°11.59 2°45.386 9.789145 3.709026 33.96873 57.232631
2004-04-19 07:11:24 51°11.584 2°45.346 9.790415 3.709132 33.972104 56.558443
2004-04-19 07:11:29 51°11.58 2°45.313 9.790415 3.709132 33.972104 56.558443
2004-04-19 07:11:34 51°11.575 2°45.28 9.789945 3.708605 33.965198 56.423606
2004-04-19 07:11:40 51°11.569 2°45.24 9.788063 3.705759 33.937716 56.15393
2004-04-19 07:11:44 51°11.565 2°45.214 9.787639 3.707129 33.953983 55.884255
2004-04-19 07:11:49 51°11.561 2°45.181 9.785287 3.707235 33.955824 55.917965
2004-04-19 07:11:54 51°11.556 2°45.148 9.788486 3.71008 33.984077 55.344905
2004-04-19 07:12:00 51°11.55 2°45.108 9.788486 3.71008 33.984077 55.344905
2004-04-19 07:12:04 51°11.547 2°45.082 9.784487 3.708921 33.973787 54.569589
2004-04-19 07:12:09 51°11.542 2°45.049 9.785945 3.710607 33.992519 55.108939
2004-04-19 07:12:14 51°11.537 2°45.016 9.781381 3.710818 33.995436 55.108939
2004-04-19 07:12:19 51°11.533 2°44.983 9.779357 3.711134 33.999428 54.771845
2004-04-19 07:12:24 51°11.528 2°44.95 9.781993 3.710502 33.992211 54.434751
2004-04-19 07:12:29 51°11.523 2°44.918 9.781993 3.710502 33.992211 54.434751
2004-04-19 07:12:34 51°11.519 2°44.885 9.778134 3.709448 33.983761 54.333623
2004-04-19 07:12:38 51°11.515 2°44.858 9.778369 3.710186 33.992054 54.030238
2004-04-19 07:12:44 51°11.509 2°44.819 9.779451 3.712188 34.014783 54.030238
2004-04-19 07:12:49 51°11.504 2°44.786 9.778792 3.711134 34.003264 53.92911
2004-04-19 07:12:54 51°11.499 2°44.753 9.775922 3.712504 34.018777 53.322341
2004-04-19 07:13:00 51°11.493 2°44.714 9.775922 3.712504 34.018777 53.322341
2004-04-19 07:13:04 51°11.49 2°44.688 9.774886 3.711029 34.005258 52.917828
2004-04-19 07:13:08 51°11.486 2°44.661 9.772251 3.713137 34.027533 53.322341
2004-04-19 07:13:14 51°11.48 2°44.622 9.770792 3.713242 34.029376 52.917828
2004-04-19 07:13:19 51°11.475 2°44.589 9.771215 3.713558 34.03337 52.884118
2004-04-19 07:13:24 51°11.471 2°44.556 9.770462 3.71398 34.037672 52.445896
2004-04-19 07:13:29 51°11.466 2°44.524 9.770462 3.71398 34.037672 52.445896
2004-04-19 07:13:34 51°11.461 2°44.491 9.767779 3.71419 34.04136 52.007674
2004-04-19 07:13:38 51°11.458 2°44.465 9.767638 3.714401 34.045816 52.277349
2004-04-19 07:13:44 51°11.452 2°44.425 9.767309 3.714296 34.046278 52.20993
2004-04-19 07:13:49 51°11.448 2°44.392 9.765708 3.714717 34.050581 51.198648
2004-04-19 07:13:54 51°11.443 2°44.36 9.766508 3.714928 34.053501 51.198648
2004-04-19 07:14:00 51°11.437 2°44.32 9.76392 3.715455 34.058111 50.693007
2004-04-19 07:14:04 51°11.433 2°44.294 9.76392 3.715455 34.058111 50.693007
2004-04-19 07:14:09 51°11.428 2°44.262 9.763025 3.715561 34.062262 50.794136
2004-04-19 07:14:14 51°11.424 2°44.229 9.764814 3.715561 34.062262 50.423332
2004-04-19 07:14:19 51°11.419 2°44.196 9.76439 3.716193 34.070256 49.883982
2004-04-19 07:14:24 51°11.414 2°44.164 9.766791 3.716509 34.072714 49.277212
2004-04-19 07:14:29 51°11.409 2°44.131 9.766791 3.716509 34.072714 49.277212
2004-04-19 07:14:34 51°11.404 2°44.099 9.763731 3.71672 34.078713 49.041247
2004-04-19 07:14:38 51°11.4 2°44.073 9.763778 3.717458 34.087015 48.8727
2004-04-19 07:14:44 51°11.395 2°44.034 9.760389 3.717352 34.086709 48.468187
2004-04-19 07:14:49 51°11.39 2°44.001 9.764861 3.717879 34.09132 48.097383
2004-04-19 07:14:54 51°11.385 2°43.968 9.763872 3.718195 34.093008 47.591742
2004-04-19 07:14:58 51°11.382 2°43.942 9.763872 3.718195 34.093008 47.591742
2004-04-19 07:15:04 51°11.376 2°43.903 9.763778 3.718617 34.096543 47.423195
2004-04-19 07:15:08 51°11.372 2°43.877 9.766508 3.718828 34.100235 47.052392
2004-04-19 07:15:14 51°11.367 2°43.838 9.763778 3.719144 34.102693 46.883845
2004-04-19 07:15:20 51°11.361 2°43.799 9.762507 3.719038 34.101617 47.423195
2004-04-19 07:15:24 51°11.357 2°43.773 9.76199 3.71946 34.106692 47.052392
2004-04-19 07:15:29 51°11.353 2°43.74 9.76199 3.71946 34.106692 47.052392
2004-04-19 07:15:34 51°11.348 2°43.708 9.762884 3.719038 34.102387 46.715298
2004-04-19 07:15:38 51°11.344 2°43.682 9.762931 3.719987 34.111302 46.411913
2004-04-19 07:15:44 51°11.339 2°43.643 9.764437 3.720198 34.114225 46.984973
2004-04-19 07:15:48 51°11.335 2°43.617 9.763496 3.720619 34.11853 46.984973
2004-04-19 07:15:54 51°11.33 2°43.578 9.76439 3.72083 34.122994 46.277076
2004-04-19 07:15:58 51°11.326 2°43.552 9.76439 3.72083 34.122994 46.277076
2004-04-19 07:16:04 51°11.321 2°43.513 9.76552 3.717458 34.088555 46.445623
2004-04-19 07:16:09 51°11.316 2°43.48 9.765237 3.721462 34.128681 46.108529
2004-04-19 07:16:14 51°11.311 2°43.448 9.764531 3.721462 34.12791 46.445623
2004-04-19 07:16:19 51°11.307 2°43.415 9.767356 3.721989 34.132521 45.939982
2004-04-19 07:16:24 51°11.302 2°43.383 9.766885 3.722622 34.138979 46.074819
2004-04-19 07:16:29 51°11.298 2°43.35 9.766885 3.722622 34.138979 46.074819
2004-04-19 07:16:34 51°11.293 2°43.318 9.767497 3.723043 34.143284 45.569178
2004-04-19 07:16:38 51°11.29 2°43.292 9.768391 3.723359 34.146513 45.670306
2004-04-19 07:16:44 51°11.284 2°43.253 9.769285 3.723675 34.148971 45.569178
2004-04-19 07:16:49 51°11.28 2°43.221 9.771074 3.724308 34.1562 45.333212
2004-04-19 07:16:54 51°11.275 2°43.188 9.770462 3.724519 34.15681 45.097247
2004-04-19 07:16:58 51°11.271 2°43.162 9.770462 3.724519 34.15681 45.097247
2004-04-19 07:17:04 51°11.266 2°43.124 9.77531 3.724835 34.158497 44.793862
2004-04-19 07:17:08 51°11.262 2°43.098 9.774369 3.722622 34.134354 44.760153
2004-04-19 07:17:14 51°11.257 2°43.059 9.776016 3.725467 34.16264 44.35564
2004-04-19 07:17:18 51°11.253 2°43.033 9.774792 3.725889 34.167717 44.119674
2004-04-19 07:17:24 51°11.248 2°42.994 9.777145 3.726415 34.171556 43.917418
2004-04-19 07:17:29 51°11.244 2°42.962 9.777145 3.726415 34.171556 43.917418
2004-04-19 07:17:34 51°11.239 2°42.93 9.777145 3.726732 34.173241 43.546614
2004-04-19 07:17:40 51°11.234 2°42.891 9.777522 3.727153 34.176775 43.917418
2004-04-19 07:17:44 51°11.23 2°42.866 9.77964 3.727575 34.18108 43.748871
2004-04-19 07:17:49 51°11.226 2°42.834 9.779357 3.72768 34.182156 43.512905
2004-04-19 07:17:54 51°11.221 2°42.801 9.779781 3.728312 34.186299 43.580324
2004-04-19 07:17:59 51°11.217 2°42.769 9.779781 3.728312 34.186299 43.580324
2004-04-19 07:18:04 51°11.212 2°42.737 9.780722 3.728629 34.190299 43.647742
2004-04-19 07:18:09 51°11.208 2°42.705 9.781145 3.72905 34.193061 43.849999
2004-04-19 07:18:14 51°11.204 2°42.675 9.780863 3.729577 34.19767 43.883708
2004-04-19 07:18:19 51°11.2 2°42.646 9.780534 3.729999 34.201203 43.681452
2004-04-19 07:18:24 51°11.196 2°42.618 9.780722 3.730209 34.203355 43.917418
2004-04-19 07:18:29 51°11.192 2°42.592 9.780722 3.730209 34.203355 43.917418
2004-04-19 07:18:34 51°11.187 2°42.568 9.78044 3.730631 34.206888 44.052255
2004-04-19 07:18:39 51°11.183 2°42.545 9.781851 3.731158 34.211497 43.951127
2004-04-19 07:18:44 51°11.178 2°42.524 9.779592 3.731474 34.213954 44.052255
2004-04-19 07:18:49 51°11.174 2°42.504 9.779875 3.732001 34.22088 43.917418
2004-04-19 07:18:54 51°11.169 2°42.486 9.779922 3.731896 34.219031 44.423059
2004-04-19 07:18:58 51°11.165 2°42.471 9.779922 3.731896 34.219031 44.423059
2004-04-19 07:19:04 51°11.16 2°42.449 9.780345 3.732844 34.228718 44.557896
2004-04-19 07:19:09 51°11.156 2°42.431 9.777851 3.732739 34.228414 43.849999
2004-04-19 07:19:14 51°11.153 2°42.414 9.778228 3.733055 34.232416 44.591606
2004-04-19 07:19:18 51°11.151 2°42.399 9.777004 3.733055 34.233189 44.389349
2004-04-19 07:19:24 51°11.148 2°42.379 9.778557 3.733266 34.234569 44.187093
2004-04-19 07:19:29 51°11.146 2°42.361 9.778557 3.733266 34.234569 44.187093
2004-04-19 07:19:34 51°11.144 2°42.344 9.776486 3.733582 34.239344 44.085965
2004-04-19 07:19:38 51°11.143 2°42.331 9.778651 3.733582 34.239344 43.479195
2004-04-19 07:19:44 51°11.141 2°42.312 9.777239 3.733793 34.239951 43.411777
2004-04-19 07:19:49 51°11.139 2°42.296 9.776439 3.699647 33.892985 42.703879
2004-04-19 07:19:54 51°11.137 2°42.282 9.776675 3.697856 33.874714 42.09711
2004-04-19 07:20:00 51°11.135 2°42.265 9.776675 3.697856 33.874714 42.09711
2004-04-19 07:20:04 51°11.133 2°42.255 9.77258 3.710397 34.002644 42.029691
2004-04-19 07:20:09 51°11.13 2°42.242 9.772298 3.706708 33.966543 41.456631
2004-04-19 07:20:14 51°11.128 2°42.23 9.773286 3.699753 33.894825 42.029691
2004-04-19 07:20:18 51°11.126 2°42.22 9.773145 3.683523 33.729358 41.254375
2004-04-19 07:20:24 51°11.122 2°42.207 9.770886 3.691111 33.806704 41.490341
2004-04-19 07:20:29 51°11.12 2°42.197 9.770886 3.691111 33.806704 41.490341
2004-04-19 07:20:34 51°11.117 2°42.186 9.772863 3.71282 34.030451 41.827435
2004-04-19 07:20:39 51°11.115 2°42.177 9.773427 3.71398 34.043051 41.827435
2004-04-19 07:20:44 51°11.112 2°42.167 9.772157 3.682786 33.725646 41.760016
2004-04-19 07:20:49 51°11.109 2°42.158 9.773568 3.708605 33.989734 41.557759
2004-04-19 07:20:54 51°11.107 2°42.149 9.772721 3.684472 33.744356 41.962272
2004-04-19 07:20:58 51°11.105 2°42.141 9.772721 3.684472 33.744356 41.962272
2004-04-19 07:21:04 51°11.103 2°42.131 9.772298 3.685947 33.759397 41.827435
2004-04-19 07:21:09 51°11.101 2°42.123 9.772674 3.688582 33.785495 41.422922
2004-04-19 07:21:14 51°11.099 2°42.115 9.77258 3.686264 33.76262 41.085828
2004-04-19 07:21:20 51°11.098 2°42.107 9.772863 3.701544 33.917692 41.220665
2004-04-19 07:21:24 51°11.097 2°42.102 9.772439 3.704916 33.951331 41.355503
2004-04-19 07:21:29 51°11.096 2°42.098 9.772439 3.704916 33.951331 41.355503
2004-04-19 07:21:34 51°11.095 2°42.094 9.771074 3.708078 33.984357 41.220665
2004-04-19 07:21:39 51°11.095 2°42.092 9.771168 3.68542 33.753263 40.95099
2004-04-19 07:21:44 51°11.095 2°42.09 9.771074 3.735795 34.26814 40.95099
2004-04-19 07:21:49 51°11.095 2°42.089 9.773568 3.735901 34.268443 40.580187
2004-04-19 07:21:54 51°11.095 2°42.089 9.771309 3.735795 34.26814 40.95099
2004-04-19 07:21:58 51°11.095 2°42.089 9.771309 3.735795 34.26814 40.95099
2004-04-19 07:22:04 51°11.095 2°42.088 9.771733 3.73569 34.26629 41.052118
2004-04-19 07:22:10 51°11.095 2°42.087 9.771356 3.736006 34.271067 40.41164
2004-04-19 07:22:14 51°11.094 2°42.087 9.771074 3.735795 34.26814 41.288084
2004-04-19 07:22:20 51°11.094 2°42.086 9.77065 3.735901 34.269217 41.085828
2004-04-19 07:22:25 51°11.094 2°42.085 9.77065 3.736006 34.270294 41.119537
2004-04-19 07:22:30 51°11.094 2°42.084 9.77065 3.736006 34.270294 41.119537
2004-04-19 07:22:34 51°11.094 2°42.083 9.770933 3.736006 34.271067 41.355503
2004-04-19 07:22:40 51°11.094 2°42.082 9.769285 3.736217 34.272447 42.09711
2004-04-19 07:22:44 51°11.094 2°42.081 9.76938 3.736322 34.275072 42.973554
2004-04-19 07:22:49 51°11.093 2°42.08 9.770603 3.736217 34.274769 44.220802
2004-04-19 07:22:54 51°11.093 2°42.079 9.769803 3.736428 34.276149 44.9287
2004-04-19 07:22:59 51°11.093 2°42.078 9.769803 3.736428 34.276149 44.9287
2004-04-19 07:23:04 51°11.093 2°42.076 9.77065 3.736428 34.277697 45.838853
2004-04-19 07:23:08 51°11.093 2°42.075 9.77065 3.736638 34.279076 47.423195
2004-04-19 07:23:14 51°11.093 2°42.074 9.771074 3.736322 34.275846 47.895127
2004-04-19 07:23:18 51°11.093 2°42.073 9.772439 3.736638 34.278302 48.333349
2004-04-19 07:23:25 51°11.092 2°42.071 9.771074 3.736638 34.278302 48.973828
2004-04-19 07:23:29 51°11.092 2°42.069 9.771074 3.736638 34.278302 48.973828
2004-04-19 07:23:34 51°11.092 2°42.068 9.769662 3.736744 34.280153 49.277212
2004-04-19 07:23:38 51°11.092 2°42.067 9.769709 3.736744 34.279379 49.142375
2004-04-19 07:23:44 51°11.092 2°42.065 9.771733 3.736849 34.28123 49.614306
2004-04-19 07:23:49 51°11.092 2°42.063 9.770368 3.736638 34.278302 49.883982
2004-04-19 07:23:54 51°11.092 2°42.062 9.771168 3.736533 34.277226 49.816563
2004-04-19 07:23:59 51°11.092 2°42.06 9.771168 3.736533 34.277226 49.816563
2004-04-19 07:24:04 51°11.092 2°42.059 9.769662 3.736744 34.279379 49.98511
2004-04-19 07:24:09 51°11.092 2°42.057 9.771168 3.736638 34.278302 49.782853
2004-04-19 07:24:14 51°11.092 2°42.055 9.770462 3.736954 34.280759 50.221076
2004-04-19 07:24:18 51°11.092 2°42.054 9.769991 3.736849 34.279682 49.98511
2004-04-19 07:24:24 51°11.092 2°42.051 9.770603 3.736849 34.28123 50.187366
2004-04-19 07:24:29 51°11.092 2°42.049 9.770603 3.736849 34.28123 50.187366
2004-04-19 07:24:34 51°11.092 2°42.047 9.76938 3.736744 34.279379 50.322204
2004-04-19 07:24:39 51°11.092 2°42.045 9.771498 3.736849 34.28123 49.9514
2004-04-19 07:24:44 51°11.092 2°42.043 9.770509 3.736849 34.280456 49.816563
2004-04-19 07:24:48 51°11.092 2°42.042 9.768956 3.736849 34.279682 48.603024
2004-04-19 07:24:54 51°11.092 2°42.039 9.769944 3.736849 34.279682 49.209794
2004-04-19 07:24:59 51°11.092 2°42.037 9.769944 3.736849 34.279682 49.209794
2004-04-19 07:25:04 51°11.093 2°42.035 9.768721 3.736954 34.281533 49.176084
2004-04-19 07:25:09 51°11.093 2°42.033 9.76825 3.736954 34.281533 49.209794
2004-04-19 07:25:14 51°11.093 2°42.031 9.767638 3.736744 34.280927 49.209794
2004-04-19 07:25:18 51°11.093 2°42.029 9.766932 3.736638 34.279851 48.940118
2004-04-19 07:25:24 51°11.093 2°42.027 9.768956 3.736638 34.279851 48.535606
2004-04-19 07:25:29 51°11.094 2°42.024 9.768956 3.736638 34.279851 48.535606
2004-04-19 07:25:34 51°11.094 2°42.022 9.768015 3.736744 34.280927 48.8727
2004-04-19 07:25:39 51°11.094 2°42.02 9.768721 3.736744 34.280927 48.400768
2004-04-19 07:25:44 51°11.094 2°42.018 9.767214 3.736533 34.279548 48.434477
2004-04-19 07:25:49 51°11.094 2°42.015 9.769144 3.736638 34.280625 48.434477
2004-04-19 07:25:54 51°11.094 2°42.013 9.769427 3.736849 34.283553 47.962546
2004-04-19 07:25:58 51°11.094 2°42.011 9.769427 3.736849 34.283553 47.962546
2004-04-19 07:26:04 51°11.095 2°42.008 9.769709 3.736744 34.280927 48.131093
2004-04-19 07:26:09 51°11.095 2°42.006 9.76938 3.736744 34.281702 48.097383
2004-04-19 07:26:14 51°11.095 2°42.003 9.767356 3.736638 34.281399 48.501896
2004-04-19 07:26:20 51°11.096 2°42 9.768956 3.736744 34.281702 47.692871
2004-04-19 07:26:24 51°11.096 2°41.998 9.769427 3.736849 34.282779 47.895127
2004-04-19 07:26:29 51°11.096 2°41.996 9.769427 3.736849 34.282779 47.895127
2004-04-19 07:26:34 51°11.096 2°41.993 9.768156 3.736638 34.279851 47.962546
2004-04-19 07:26:38 51°11.097 2°41.991 9.768156 3.736638 34.281399 48.26593
2004-04-19 07:26:44 51°11.097 2°41.988 9.768438 3.736849 34.282779 47.524324
2004-04-19 07:26:48 51°11.097 2°41.986 9.769097 3.736849 34.283553 47.793999
2004-04-19 07:26:54 51°11.097 2°41.983 9.769285 3.736533 34.279548 47.524324
2004-04-19 07:26:59 51°11.097 2°41.981 9.769285 3.736533 34.279548 47.524324
2004-04-19 07:27:04 51°11.097 2°41.978 9.769662 3.736954 34.283856 47.760289
2004-04-19 07:27:09 51°11.098 2°41.976 9.769097 3.736744 34.281702 47.895127
2004-04-19 07:27:14 51°11.098 2°41.973 9.76825 3.736744 34.281702 47.119811
2004-04-19 07:27:20 51°11.098 2°41.97 9.767309 3.736638 34.280625 46.917554
2004-04-19 07:27:24 51°11.098 2°41.968 9.767732 3.736638 34.280625 47.625452
2004-04-19 07:27:29 51°11.098 2°41.965 9.767732 3.736638 34.280625 47.625452
2004-04-19 07:27:34 51°11.098 2°41.962 9.767073 3.736849 34.282004 47.322067
2004-04-19 07:27:39 51°11.098 2°41.96 9.76825 3.736533 34.278774 46.681589
2004-04-19 07:27:44 51°11.098 2°41.957 9.766085 3.736954 34.283856 46.310785
2004-04-19 07:27:49 51°11.098 2°41.954 9.766508 3.736744 34.281702 46.074819
2004-04-19 07:27:54 51°11.098 2°41.952 9.766885 3.736849 34.283553 45.029828
2004-04-19 07:28:00 51°11.098 2°41.948 9.766885 3.736849 34.283553 45.029828
2004-04-19 07:28:04 51°11.099 2°41.946 9.766508 3.736638 34.282947 44.659024
2004-04-19 07:28:09 51°11.099 2°41.943 9.768062 3.736744 34.282476 43.883708
2004-04-19 07:28:14 51°11.099 2°41.94 9.768156 3.736638 34.282947 43.512905
2004-04-19 07:28:18 51°11.099 2°41.938 9.766791 3.736533 34.281096 43.378067
2004-04-19 07:28:24 51°11.099 2°41.935 9.766885 3.736849 34.285101 42.602751
2004-04-19 07:28:29 51°11.099 2°41.932 9.766885 3.736849 34.285101 42.602751
2004-04-19 07:28:34 51°11.099 2°41.929 9.765802 3.736744 34.282476 42.838717
2004-04-19 07:28:39 51°11.099 2°41.927 9.766179 3.736744 34.282476 42.805007
2004-04-19 07:28:44 51°11.099 2°41.924 9.767497 3.736744 34.28325 42.939845
2004-04-19 07:28:49 51°11.099 2°41.921 9.766367 3.736744 34.281702 42.198238
2004-04-19 07:28:54 51°11.099 2°41.918 9.769097 3.736638 34.282173 42.569042
2004-04-19 07:28:59 51°11.099 2°41.916 9.769097 3.736638 34.282173 42.569042
2004-04-19 07:29:04 51°11.1 2°41.913 9.76938 3.736744 34.284024 42.130819
2004-04-19 07:29:09 51°11.1 2°41.91 9.769097 3.736744 34.284024 42.029691
2004-04-19 07:29:14 51°11.1 2°41.907 9.769238 3.736638 34.282947 41.153247
2004-04-19 07:29:19 51°11.1 2°41.904 9.769944 3.736849 34.285101 40.546477
2004-04-19 07:29:24 51°11.1 2°41.901 9.768862 3.736954 34.28463 40.344221
2004-04-19 07:29:29 51°11.1 2°41.899 9.768862 3.736954 34.28463 40.344221
2004-04-19 07:29:34 51°11.1 2°41.896 9.766885 3.736954 34.28463 40.040836
2004-04-19 07:29:40 51°11.1 2°41.892 9.766226 3.736849 34.282779 39.400358
2004-04-19 07:29:44 51°11.1 2°41.89 9.767073 3.737165 34.285235 39.535195
2004-04-19 07:29:49 51°11.1 2°41.887 9.768062 3.737165 34.285235 38.827298
2004-04-19 07:29:54 51°11.101 2°41.884 9.76825 3.737165 34.285235 37.647469
2004-04-19 07:29:59 51°11.101 2°41.881 9.76825 3.737165 34.285235 37.647469
2004-04-19 07:30:04 51°11.101 2°41.878 9.771027 3.737165 34.287558 37.344084
2004-04-19 07:30:09 51°11.101 2°41.875 9.77065 3.73706 34.286481 36.872153
2004-04-19 07:30:14 51°11.101 2°41.873 9.769944 3.73706 34.285707 37.141828
2004-04-19 07:30:20 51°11.101 2°41.869 9.772721 3.736955 34.286178 36.905862
2004-04-19 07:30:24 51°11.101 2°41.865 9.771215 3.737165 34.286009 37.175537
2004-04-19 07:30:29 51°11.101 2°41.861 9.771215 3.737165 34.286009 37.175537
2004-04-19 07:30:34 51°11.101 2°41.855 9.771921 3.737165 34.285235 36.872153
2004-04-19 07:30:38 51°11.1 2°41.849 9.772439 3.737271 34.286312 37.0407
2004-04-19 07:30:44 51°11.1 2°41.84 9.772957 3.737376 34.288163 36.231674
2004-04-19 07:30:49 51°11.099 2°41.831 9.769662 3.737376 34.285841 36.130546
2004-04-19 07:30:54 51°11.098 2°41.822 9.770368 3.737271 34.286312 35.995708
2004-04-19 07:30:58 51°11.097 2°41.812 9.770368 3.737271 34.286312 35.995708
2004-04-19 07:31:04 51°11.094 2°41.795 9.770321 3.737376 34.286615 35.827161
2004-04-19 07:31:09 51°11.091 2°41.778 9.772533 3.737376 34.287389 35.995708
2004-04-19 07:31:14 51°11.087 2°41.76 9.774227 3.737376 34.287389 35.89458
2004-04-19 07:31:18 51°11.083 2°41.744 9.775498 3.737481 34.290015 35.759742
2004-04-19 07:31:24 51°11.078 2°41.719 9.775357 3.737481 34.290015 35.591195
2004-04-19 07:31:29 51°11.073 2°41.696 9.775357 3.737481 34.290015 35.591195
2004-04-19 07:31:34 51°11.068 2°41.673 9.775922 3.737798 34.29402 34.849589
2004-04-19 07:31:38 51°11.064 2°41.653 9.77531 3.737692 34.291394 34.849589
2004-04-19 07:31:44 51°11.058 2°41.623 9.775498 3.738114 34.294153 34.984426
2004-04-19 07:31:48 51°11.053 2°41.602 9.774604 3.737903 34.292 35.523777
2004-04-19 07:31:54 51°11.047 2°41.57 9.774227 3.738325 34.293984 35.89458
2004-04-19 07:31:58 51°11.042 2°41.548 9.774227 3.738325 34.293984 35.89458
2004-04-19 07:32:04 51°11.035 2°41.514 9.773004 3.738641 34.29644 36.366512
2004-04-19 07:32:09 51°11.029 2°41.485 9.772533 3.738641 34.295666 36.568768
2004-04-19 07:32:14 51°11.023 2°41.456 9.772298 3.738957 34.300446 36.905862
2004-04-19 07:32:19 51°11.017 2°41.426 9.768674 3.739062 34.300748 36.939571
2004-04-19 07:32:24 51°11.011 2°41.396 9.768532 3.739168 34.303374 36.669896
2004-04-19 07:32:29 51°11.005 2°41.366 9.769003 3.739378 34.306303 36.366512
2004-04-19 07:32:34 51°11 2°41.335 9.769003 3.739378 34.306303 36.366512
2004-04-19 07:32:40 51°10.994 2°41.298 9.766744 3.739273 34.306 36.703606
2004-04-19 07:32:44 51°10.989 2°41.274 9.767873 3.739378 34.307852 37.0407
2004-04-19 07:32:49 51°10.985 2°41.243 9.768579 3.739695 34.311858 37.310375
2004-04-19 07:32:54 51°10.979 2°41.211 9.765002 3.7398 34.31371 37.748597
2004-04-19 07:33:00 51°10.973 2°41.174 9.762037 3.739695 34.311083 37.883435
2004-04-19 07:33:04 51°10.969 2°41.149 9.762037 3.739695 34.311083 37.883435
2004-04-19 07:33:09 51°10.963 2°41.118 9.760012 3.740116 34.318492 38.1194
2004-04-19 07:33:14 51°10.958 2°41.087 9.75893 3.740116 34.318492 38.422785
2004-04-19 07:33:18 51°10.954 2°41.062 9.757 3.739379 34.311726 38.995845
2004-04-19 07:33:24 51°10.948 2°41.025 9.757659 3.740116 34.319267 39.568905
2004-04-19 07:33:29 51°10.943 2°40.993 9.757659 3.740116 34.319267 39.568905
2004-04-19 07:33:34 51°10.938 2°40.962 9.754457 3.740116 34.322367 39.905999
2004-04-19 07:33:39 51°10.933 2°40.931 9.754034 3.740116 34.323143 39.366648
2004-04-19 07:33:44 51°10.928 2°40.899 9.752151 3.740116 34.323918 39.737452
2004-04-19 07:33:49 51°10.922 2°40.868 9.747819 3.740222 34.328097 39.771161
2004-04-19 07:33:54 51°10.917 2°40.836 9.746359 3.740116 34.327795 39.83858
2004-04-19 07:34:00 51°10.911 2°40.799 9.746359 3.740116 34.327795 39.83858
2004-04-19 07:34:04 51°10.906 2°40.774 9.741933 3.740011 34.328269 39.434067
2004-04-19 07:34:09 51°10.901 2°40.742 9.738119 3.740011 34.329044 39.332939
2004-04-19 07:34:14 51°10.896 2°40.711 9.73567 3.739906 34.330294 39.434067
2004-04-19 07:34:18 51°10.891 2°40.686 9.731715 3.7398 34.332319 39.164392
2004-04-19 07:34:24 51°10.885 2°40.648 9.730066 3.739484 34.330637 39.130683
2004-04-19 07:34:30 51°10.878 2°40.61 9.730066 3.739484 34.330637 39.130683
2004-04-19 07:34:34 51°10.874 2°40.585 9.726016 3.739484 34.334517 39.434067
2004-04-19 07:34:39 51°10.869 2°40.553 9.723943 3.739273 34.334689 39.096973
2004-04-19 07:34:44 51°10.863 2°40.521 9.721306 3.739168 34.335163 39.063264
2004-04-19 07:34:49 51°10.858 2°40.49 9.718762 3.738957 34.337665 38.759879
2004-04-19 07:34:54 51°10.853 2°40.458 9.713439 3.738957 34.339994 38.254238
2004-04-19 07:35:00 51°10.847 2°40.42 9.711131 3.738641 34.339088 38.456494
2004-04-19 07:35:04 51°10.842 2°40.395 9.711131 3.738641 34.339088 38.456494
2004-04-19 07:35:08 51°10.838 2°40.37 9.706137 3.73843 34.339261 38.254238
2004-04-19 07:35:14 51°10.832 2°40.332 9.701944 3.734953 34.307558 38.186819
2004-04-19 07:35:18 51°10.827 2°40.307 9.695441 3.735901 34.320368 38.186819
2004-04-19 07:35:25 51°10.819 2°40.263 9.689457 3.736323 34.328563 38.186819
2004-04-19 07:35:29 51°10.815 2°40.238 9.689457 3.736323 34.328563 38.186819
2004-04-19 07:35:34 51°10.81 2°40.206 9.688326 3.735796 34.3255 37.883435
2004-04-19 07:35:40 51°10.804 2°40.168 9.685309 3.735269 34.32399 38.018272
2004-04-19 07:35:44 51°10.799 2°40.143 9.678098 3.737061 34.346214 37.816016
2004-04-19 07:35:48 51°10.795 2°40.118 9.671594 3.736428 34.345181 38.220529
2004-04-19 07:35:54 51°10.788 2°40.08 9.668624 3.735164 34.336118 37.748597
2004-04-19 07:35:58 51°10.784 2°40.055 9.668624 3.735164 34.336118 37.748597
2004-04-19 07:36:04 51°10.778 2°40.017 9.662212 3.736323 34.351876 37.984563
2004-04-19 07:36:09 51°10.773 2°39.986 9.661741 3.734532 34.338193 37.276665
2004-04-19 07:36:14 51°10.767 2°39.954 9.659337 3.733056 34.326968 37.546341
2004-04-19 07:36:19 51°10.762 2°39.923 9.653773 3.731897 34.320535 37.782306
2004-04-19 07:36:24 51°10.757 2°39.891 9.654009 3.73411 34.347874 38.051982
2004-04-19 07:36:29 51°10.752 2°39.86 9.654009 3.73411 34.347874 38.051982
2004-04-19 07:36:34 51°10.747 2°39.829 9.65415 3.731581 34.322738 37.984563
2004-04-19 07:36:38 51°10.743 2°39.804 9.650567 3.734743 34.360579 38.355366
2004-04-19 07:36:44 51°10.736 2°39.766 9.650849 3.734743 34.361358 38.355366
2004-04-19 07:36:49 51°10.731 2°39.735 9.647879 3.733373 34.351987 39.029554
2004-04-19 07:36:54 51°10.725 2°39.704 9.647596 3.734427 34.365904 39.804871
2004-04-19 07:36:59 51°10.719 2°39.673 9.647596 3.734427 34.365904 39.804871
2004-04-19 07:37:04 51°10.712 2°39.642 9.646134 3.731792 34.339677 40.209383
2004-04-19 07:37:09 51°10.705 2°39.612 9.646747 3.73411 34.365778 40.681315
2004-04-19 07:37:14 51°10.699 2°39.581 9.646841 3.7339 34.365175 41.321794
2004-04-19 07:37:20 51°10.691 2°39.544 9.647266 3.734005 34.366256 41.928563
2004-04-19 07:37:24 51°10.686 2°39.52 9.643446 3.733794 34.365653 41.894853
2004-04-19 07:37:29 51°10.679 2°39.489 9.643446 3.733794 34.365653 41.894853
2004-04-19 07:37:34 51°10.672 2°39.459 9.645049 3.73274 34.357185 42.63646
2004-04-19 07:37:40 51°10.664 2°39.422 9.643163 3.7339 34.368291 42.67017
2004-04-19 07:37:44 51°10.659 2°39.398 9.641984 3.7339 34.368291 43.512905
2004-04-19 07:37:49 51°10.652 2°39.367 9.642597 3.733689 34.366909 43.411777
2004-04-19 07:37:54 51°10.646 2°39.336 9.641229 3.733689 34.367688 43.479195
2004-04-19 07:37:58 51°10.64 2°39.312 9.641229 3.733689 34.367688 43.479195
2004-04-19 07:38:04 51°10.632 2°39.275 9.639909 3.733584 34.366608 43.378067
2004-04-19 07:38:09 51°10.626 2°39.244 9.640475 3.729684 34.328966 44.052255
2004-04-19 07:38:14 51°10.619 2°39.213 9.640286 3.730316 34.33467 44.220802
2004-04-19 07:38:19 51°10.612 2°39.182 9.641135 3.729157 34.323564 43.883708
2004-04-19 07:38:24 51°10.606 2°39.152 9.63906 3.733373 34.368342 44.220802
2004-04-19 07:38:29 51°10.599 2°39.121 9.63906 3.733373 34.368342 44.220802
2004-04-19 07:38:34 51°10.592 2°39.09 9.640805 3.731897 34.353993 44.389349
2004-04-19 07:38:40 51°10.584 2°39.053 9.639201 3.733057 34.367438 44.524187
2004-04-19 07:38:44 51°10.579 2°39.028 9.640805 3.733162 34.36696 44.32193
2004-04-19 07:38:49 51°10.572 2°38.998 9.640003 3.733162 34.366181 44.996118
2004-04-19 07:38:54 51°10.566 2°38.967 9.641277 3.733162 34.36696 44.726443
2004-04-19 07:38:58 51°10.56 2°38.942 9.641277 3.733162 34.36696 44.726443
2004-04-19 07:39:04 51°10.553 2°38.905 9.639532 3.733162 34.36696 44.9287
2004-04-19 07:39:09 51°10.546 2°38.874 9.641135 3.72979 34.33316 45.333212
2004-04-19 07:39:14 51°10.539 2°38.843 9.638919 3.732846 34.364497 44.827571
2004-04-19 07:39:19 51°10.532 2°38.813 9.637598 3.733057 34.366659 45.130956
2004-04-19 07:39:24 51°10.525 2°38.782 9.63906 3.733057 34.36588 45.029828
2004-04-19 07:39:29 51°10.519 2°38.751 9.63906 3.733057 34.36588 45.029828
2004-04-19 07:39:34 51°10.512 2°38.72 9.638494 3.733162 34.367739 45.400631
2004-04-19 07:39:40 51°10.504 2°38.683 9.637315 3.733057 34.366659 45.232084
2004-04-19 07:39:44 51°10.499 2°38.658 9.636136 3.733162 34.367739 45.366922
2004-04-19 07:39:49 51°10.492 2°38.627 9.635994 3.733057 34.367438 45.569178
2004-04-19 07:39:54 51°10.485 2°38.596 9.6359 3.732951 34.366357 45.602888
2004-04-19 07:40:00 51°10.477 2°38.559 9.6359 3.732951 34.366357 45.602888
2004-04-19 07:40:04 51°10.472 2°38.535 9.635098 3.733162 34.368519 45.535469
2004-04-19 07:40:09 51°10.465 2°38.504 9.6359 3.733057 34.368996 45.366922
2004-04-19 07:40:14 51°10.458 2°38.473 9.631985 3.732951 34.368695 45.569178
2004-04-19 07:40:18 51°10.453 2°38.448 9.633778 3.732846 34.368394 45.501759
2004-04-19 07:40:24 51°10.445 2°38.411 9.629533 3.732741 34.368871 45.670306
2004-04-19 07:40:29 51°10.439 2°38.38 9.629533 3.732741 34.368871 45.670306
2004-04-19 07:40:34 51°10.432 2°38.349 9.630759 3.732846 34.369952 45.265794
2004-04-19 07:40:40 51°10.424 2°38.312 9.629485 3.732846 34.369173 44.996118
2004-04-19 07:40:44 51°10.419 2°38.287 9.62741 3.732846 34.370732 44.760153
2004-04-19 07:40:49 51°10.412 2°38.256 9.623117 3.732846 34.372291 45.198375
2004-04-19 07:40:54 51°10.405 2°38.225 9.622551 3.732424 34.369526 44.827571
2004-04-19 07:40:58 51°10.4 2°38.2 9.622551 3.732424 34.369526 44.827571
2004-04-19 07:41:04 51°10.392 2°38.163 9.623353 3.732424 34.370306 44.793862
2004-04-19 07:41:09 51°10.386 2°38.132 9.618777 3.732319 34.370004 44.254512
2004-04-19 07:41:14 51°10.379 2°38.101 9.618022 3.732319 34.371563 44.220802
2004-04-19 07:41:19 51°10.372 2°38.07 9.617645 3.732214 34.372042 43.849999
2004-04-19 07:41:24 51°10.365 2°38.039 9.614295 3.731898 34.369578 43.917418
2004-04-19 07:41:29 51°10.359 2°38.008 9.614295 3.731898 34.369578 43.917418
2004-04-19 07:41:34 51°10.352 2°37.977 9.614625 3.731898 34.372697 43.142101
2004-04-19 07:41:38 51°10.347 2°37.952 9.612927 3.731792 34.372395 43.040973
2004-04-19 07:41:44 51°10.339 2°37.915 9.610002 3.731792 34.373955 43.040973
2004-04-19 07:41:50 51°10.331 2°37.877 9.609436 3.731792 34.374735 42.164529
2004-04-19 07:41:54 51°10.325 2°37.853 9.607643 3.731792 34.377075 42.0634
2004-04-19 07:41:59 51°10.319 2°37.822 9.607643 3.731792 34.377075 42.0634
2004-04-19 07:42:04 51°10.312 2°37.791 9.60953 3.731371 34.373529 41.625178
2004-04-19 07:42:08 51°10.306 2°37.766 9.605755 3.731476 34.375391 41.052118
2004-04-19 07:42:14 51°10.298 2°37.728 9.608822 3.731582 34.378032 40.613896
2004-04-19 07:42:19 51°10.292 2°37.697 9.606888 3.730949 34.373104 39.939708
2004-04-19 07:42:24 51°10.285 2°37.666 9.605614 3.730844 34.372802 39.636324
2004-04-19 07:42:29 51°10.278 2°37.635 9.605614 3.730844 34.372802 39.636324
2004-04-19 07:42:34 51°10.272 2°37.604 9.606038 3.730949 34.374664 39.164392
2004-04-19 07:42:38 51°10.266 2°37.579 9.601178 3.730844 34.374363 38.591332
2004-04-19 07:42:44 51°10.258 2°37.542 9.600045 3.730528 34.371898 37.917144
2004-04-19 07:42:49 51°10.251 2°37.51 9.597875 3.730633 34.37298 37.478922
2004-04-19 07:42:54 51°10.245 2°37.479 9.597875 3.730633 34.3761 37.0407
2004-04-19 07:42:58 51°10.239 2°37.454 9.597875 3.730633 34.3761 37.0407
2004-04-19 07:43:04 51°10.231 2°37.417 9.596978 3.730212 34.372554 36.669896
2004-04-19 07:43:09 51°10.224 2°37.386 9.596883 3.730001 34.372731 36.130546
2004-04-19 07:43:14 51°10.217 2°37.355 9.594807 3.730106 34.373033 35.759742
2004-04-19 07:43:20 51°10.209 2°37.317 9.594241 3.730001 34.374292 35.085554
2004-04-19 07:43:24 51°10.204 2°37.293 9.592542 3.730001 34.375072 35.051845
2004-04-19 07:43:28 51°10.199 2°37.268 9.592542 3.730001 34.375072 35.051845
2004-04-19 07:43:34 51°10.191 2°37.23 9.591173 3.729579 34.370745 34.242819
2004-04-19 07:43:39 51°10.185 2°37.198 9.589191 3.729579 34.373086 33.973144
2004-04-19 07:43:44 51°10.179 2°37.167 9.588483 3.729579 34.373867 33.501212
2004-04-19 07:43:48 51°10.175 2°37.142 9.587963 3.729263 34.372962 33.332665
2004-04-19 07:43:54 51°10.168 2°37.104 9.587114 3.729263 34.371401 33.366375
2004-04-19 07:43:59 51°10.162 2°37.072 9.587114 3.729263 34.371401 33.366375
2004-04-19 07:44:04 51°10.157 2°37.041 9.585179 3.729263 34.372962 32.658477
2004-04-19 07:44:09 51°10.151 2°37.009 9.585462 3.729052 34.372359 32.220255
2004-04-19 07:44:14 51°10.146 2°36.978 9.582488 3.729158 34.375002 31.984289
2004-04-19 07:44:20 51°10.139 2°36.94 9.582111 3.729158 34.375783 31.782033
2004-04-19 07:44:24 51°10.134 2°36.915 9.577532 3.729158 34.375783 31.41123
2004-04-19 07:44:29 51°10.128 2°36.884 9.577532 3.729158 34.375783 31.41123
2004-04-19 07:44:34 51°10.123 2°36.852 9.579939 3.728947 34.37518 31.748324
2004-04-19 07:44:40 51°10.116 2°36.815 9.578193 3.728631 34.374276 31.883161
2004-04-19 07:44:44 51°10.112 2°36.789 9.578853 3.728631 34.374276 32.321383
2004-04-19 07:44:49 51°10.106 2°36.758 9.573991 3.72842 34.375235 32.119127
2004-04-19 07:44:54 51°10.1 2°36.727 9.573283 3.728209 34.373851 31.680905
2004-04-19 07:44:58 51°10.095 2°36.702 9.573283 3.728209 34.373851 31.680905
2004-04-19 07:45:04 51°10.089 2°36.664 9.572055 3.72842 34.376796 32.355093
2004-04-19 07:45:09 51°10.083 2°36.633 9.569884 3.728315 34.376495 32.422512
2004-04-19 07:45:14 51°10.077 2°36.601 9.569931 3.728209 34.376974 32.759606
2004-04-19 07:45:18 51°10.073 2°36.576 9.565871 3.727999 34.376372 32.321383
2004-04-19 07:45:24 51°10.066 2°36.539 9.567051 3.728104 34.377454 32.692187
2004-04-19 07:45:28 51°10.061 2°36.514 9.567051 3.728104 34.377454 32.692187
2004-04-19 07:45:34 51°10.055 2°36.476 9.56436 3.727893 34.377632 32.759606
2004-04-19 07:45:39 51°10.05 2°36.444 9.563557 3.727788 34.378112 32.287674
2004-04-19 07:45:44 51°10.047 2°36.412 9.564501 3.727788 34.378893 32.692187
2004-04-19 07:45:48 51°10.044 2°36.386 9.56384 3.727472 34.377989 32.759606
2004-04-19 07:45:54 51°10.042 2°36.348 9.561054 3.727366 34.376906 32.624768
2004-04-19 07:45:59 51°10.041 2°36.315 9.561054 3.727366 34.376906 32.624768
2004-04-19 07:46:04 51°10.041 2°36.283 9.559874 3.727577 34.381415 32.725896
2004-04-19 07:46:09 51°10.041 2°36.251 9.556569 3.727156 34.377866 32.725896
2004-04-19 07:46:14 51°10.042 2°36.218 9.554443 3.727366 34.378469 32.658477
2004-04-19 07:46:18 51°10.044 2°36.193 9.554727 3.727156 34.377084 32.456221
2004-04-19 07:46:24 51°10.048 2°36.155 9.55246 3.727261 34.378948 32.085418
2004-04-19 07:46:29 51°10.053 2°36.124 9.55246 3.727261 34.378948 32.085418
2004-04-19 07:46:34 51°10.059 2°36.094 9.54854 3.727261 34.37973 32.051708
2004-04-19 07:46:40 51°10.068 2°36.06 9.549579 3.72705 34.379908 32.051708
2004-04-19 07:46:44 51°10.075 2°36.037 9.540417 3.72705 34.383034 32.422512
2004-04-19 07:46:49 51°10.085 2°36.01 9.533804 3.72684 34.38165 32.48993
2004-04-19 07:46:54 51°10.095 2°35.984 9.528276 3.726629 34.381829 32.624768
2004-04-19 07:46:58 51°10.105 2°35.964 9.528276 3.726629 34.381829 32.624768
2004-04-19 07:47:04 51°10.12 2°35.938 9.519489 3.726629 34.38261 32.827024
2004-04-19 07:47:08 51°10.131 2°35.921 9.514527 3.726418 34.382789 32.827024
2004-04-19 07:47:14 51°10.149 2°35.898 9.499499 3.726102 34.383449 32.995571
2004-04-19 07:47:19 51°10.164 2°35.882 9.486501 3.725786 34.384108 32.557349
2004-04-19 07:47:24 51°10.18 2°35.867 9.474729 3.725786 34.388018 32.456221
2004-04-19 07:47:29 51°10.196 2°35.855 9.474729 3.725786 34.388018 32.456221
2004-04-19 07:47:34 51°10.213 2°35.845 9.467021 3.725048 34.388256 32.658477
2004-04-19 07:47:40 51°10.233 2°35.835 9.455293 3.724838 34.394696 32.388802
2004-04-19 07:47:44 51°10.246 2°35.829 9.445029 3.724206 34.399152 31.916871
2004-04-19 07:47:49 51°10.263 2°35.822 9.431783 3.723152 34.399273 31.95058
2004-04-19 07:47:54 51°10.28 2°35.817 9.427288 3.72273 34.405904 31.343811
2004-04-19 07:48:00 51°10.301 2°35.811 9.427288 3.72273 34.405904 31.343811
2004-04-19 07:48:04 51°10.315 2°35.806 9.420758 3.722098 34.408802 31.41123
2004-04-19 07:48:08 51°10.329 2°35.804 9.413471 3.720939 34.406274 30.80446
2004-04-19 07:48:14 51°10.35 2°35.801 9.401023 3.720518 34.412915 31.208973
2004-04-19 07:48:19 51°10.368 2°35.8 9.388383 3.71978 34.416302 30.635913
2004-04-19 07:48:24 51°10.386 2°35.799 9.389803 3.719042 34.41498 31.107845
2004-04-19 07:48:29 51°10.404 2°35.799 9.389803 3.719042 34.41498 31.107845
2004-04-19 07:48:34 51°10.422 2°35.799 9.374415 3.717989 34.411185 31.478648
2004-04-19 07:48:40 51°10.443 2°35.8 9.363759 3.717462 34.413606 31.512358
2004-04-19 07:48:44 51°10.457 2°35.801 9.357649 3.716619 34.411983 31.883161
2004-04-19 07:48:49 51°10.475 2°35.804 9.357886 3.71567 34.410845 32.355093
2004-04-19 07:48:54 51°10.492 2°35.81 9.353812 3.715354 34.415444 32.253965
2004-04-19 07:48:59 51°10.51 2°35.816 9.353812 3.715354 34.415444 32.253965
2004-04-19 07:49:04 51°10.526 2°35.823 9.349596 3.714406 34.416666 32.557349
2004-04-19 07:49:08 51°10.54 2°35.829 9.345712 3.713774 34.417219 33.298956
2004-04-19 07:49:14 51°10.56 2°35.839 9.344243 3.712931 34.417171 33.231537
2004-04-19 07:49:18 51°10.573 2°35.846 9.340121 3.71272 34.416568 33.197828
2004-04-19 07:49:24 51°10.593 2°35.856 9.343817 3.712509 34.419114 33.298956
2004-04-19 07:49:29 51°10.609 2°35.866 9.343817 3.712509 34.419114 33.298956
2004-04-19 07:49:34 51°10.625 2°35.877 9.3387 3.712299 34.420086 33.332665
2004-04-19 07:49:40 51°10.644 2°35.892 9.342348 3.711666 34.417493 32.725896
2004-04-19 07:49:44 51°10.657 2°35.902 9.349265 3.712088 34.424996 32.793315
2004-04-19 07:49:49 51°10.672 2°35.917 9.343343 3.711772 34.425668 32.017999
2004-04-19 07:49:54 51°10.687 2°35.93 9.343817 3.711877 34.428332 32.017999
2004-04-19 07:49:59 51°10.702 2°35.945 9.343817 3.711877 34.428332 32.017999
2004-04-19 07:50:05 51°10.72 2°35.961 9.348838 3.711877 34.428332 31.883161
2004-04-19 07:50:09 51°10.732 2°35.972 9.343343 3.712088 34.430509 31.815742
2004-04-19 07:50:14 51°10.748 2°35.985 9.343106 3.712404 34.429836 31.613486
2004-04-19 07:50:18 51°10.76 2°35.995 9.344338 3.712404 34.429836 31.95058
2004-04-19 07:50:24 51°10.779 2°36.01 9.345049 3.712299 34.431111 31.310101
2004-04-19 07:50:29 51°10.795 2°36.023 9.345049 3.712299 34.431111 31.310101
2004-04-19 07:50:34 51°10.81 2°36.036 9.34718 3.712509 34.431712 31.37752
2004-04-19 07:50:39 51°10.826 2°36.048 9.344622 3.713036 34.437943 31.815742
2004-04-19 07:50:44 51°10.841 2°36.062 9.34628 3.712509 34.433288 31.613486
2004-04-19 07:50:49 51°10.857 2°36.074 9.348033 3.712826 34.436554 31.748324
2004-04-19 07:50:54 51°10.873 2°36.088 9.349265 3.71272 34.434677 31.782033
2004-04-19 07:50:58 51°10.885 2°36.098 9.349265 3.71272 34.434677 31.782033
2004-04-19 07:51:04 51°10.904 2°36.114 9.352676 3.71272 34.435465 31.444939
2004-04-19 07:51:08 51°10.917 2°36.124 9.355802 3.712404 34.429836 31.107845
2004-04-19 07:51:14 51°10.935 2°36.139 9.359307 3.71272 34.432314 30.501076
2004-04-19 07:51:18 51°10.948 2°36.149 9.364849 3.712615 34.432013 30.568494
2004-04-19 07:51:24 51°10.967 2°36.165 9.371574 3.712826 34.432615 30.399947
2004-04-19 07:51:29 51°10.983 2°36.177 9.371574 3.712826 34.432615 30.399947
2004-04-19 07:51:34 51°10.998 2°36.19 9.377872 3.712615 34.428075 30.130272
2004-04-19 07:51:40 51°11.017 2°36.206 9.383838 3.712509 34.425412 30.26511
2004-04-19 07:51:44 51°11.029 2°36.216 9.390419 3.712615 34.422564 30.399947
2004-04-19 07:51:49 51°11.045 2°36.229 9.395721 3.713036 34.422981 30.399947
2004-04-19 07:51:54 51°11.061 2°36.242 9.400786 3.713247 34.419648 31.040426
2004-04-19 07:52:00 51°11.08 2°36.257 9.400786 3.713247 34.419648 31.040426
2004-04-19 07:52:04 51°11.092 2°36.267 9.406703 3.713352 34.416801 30.871879
2004-04-19 07:52:08 51°11.105 2°36.278 9.409921 3.713984 34.416248 31.074136
2004-04-19 07:52:14 51°11.124 2°36.293 9.412003 3.714195 34.414491 31.37752
2004-04-19 07:52:20 51°11.142 2°36.308 9.413849 3.714722 34.413637 31.478648
2004-04-19 07:52:24 51°11.155 2°36.318 9.414843 3.714827 34.409222 31.984289
2004-04-19 07:52:29 51°11.171 2°36.33 9.414843 3.714827 34.409222 31.984289
2004-04-19 07:52:34 51°11.187 2°36.343 9.416405 3.714933 34.404808 31.782033
2004-04-19 07:52:39 51°11.202 2°36.355 9.414417 3.715776 34.41036 32.085418
2004-04-19 07:52:44 51°11.218 2°36.368 9.414038 3.715986 34.410177 32.48993
2004-04-19 07:52:49 51°11.234 2°36.381 9.412193 3.716092 34.408121 32.557349
2004-04-19 07:52:54 51°11.249 2°36.393 9.411294 3.716197 34.407636 32.48993
2004-04-19 07:53:00 51°11.269 2°36.408 9.411294 3.716197 34.407636 32.48993
2004-04-19 07:53:04 51°11.281 2°36.418 9.407839 3.716408 34.409024 33.06299
2004-04-19 07:53:09 51°11.297 2°36.43 9.408643 3.716619 34.411198 32.860734
2004-04-19 07:53:14 51°11.313 2°36.443 9.40604 3.716513 34.410111 32.422512
2004-04-19 07:53:19 51°11.329 2°36.455 9.400455 3.716513 34.411682 32.186546
2004-04-19 07:53:24 51°11.344 2°36.468 9.401307 3.716724 34.414642 32.624768
2004-04-19 07:53:29 51°11.361 2°36.48 9.401307 3.716724 34.414642 32.624768
2004-04-19 07:53:34 51°11.376 2°36.493 9.397236 3.716408 34.413738 32.388802
2004-04-19 07:53:39 51°11.392 2°36.505 9.397236 3.716408 34.413738 32.591059
2004-04-19 07:53:44 51°11.408 2°36.518 9.393259 3.716197 34.412351 32.759606
2004-04-19 07:53:49 51°11.424 2°36.53 9.394301 3.716303 34.416581 32.388802
2004-04-19 07:53:54 51°11.439 2°36.543 9.391792 3.716197 34.418638 32.119127
2004-04-19 07:53:58 51°11.452 2°36.553 9.391792 3.716197 34.418638 32.119127
2004-04-19 07:54:04 51°11.471 2°36.569 9.387057 3.715881 34.417735 32.287674
2004-04-19 07:54:09 51°11.487 2°36.581 9.386489 3.716092 34.421482 32.287674
2004-04-19 07:54:14 51°11.502 2°36.593 9.388383 3.716092 34.422268 31.782033
2004-04-19 07:54:18 51°11.515 2°36.603 9.389282 3.715776 34.421365 31.680905
2004-04-19 07:54:24 51°11.534 2°36.618 9.387199 3.71567 34.421064 31.444939
2004-04-19 07:54:29 51°11.55 2°36.63 9.387199 3.71567 34.421064 31.444939
2004-04-19 07:54:34 51°11.566 2°36.643 9.386821 3.715776 34.424511 31.613486
2004-04-19 07:54:39 51°11.581 2°36.656 9.384548 3.715776 34.425297 31.074136
2004-04-19 07:54:44 51°11.598 2°36.668 9.383838 3.715354 34.420161 31.579777
2004-04-19 07:54:49 51°11.613 2°36.681 9.384264 3.715354 34.421734 31.175264
2004-04-19 07:54:54 51°11.629 2°36.695 9.382607 3.715249 34.421433 31.276392
2004-04-19 07:54:58 51°11.64 2°36.707 9.382607 3.715249 34.421433 31.276392
2004-04-19 07:55:04 51°11.658 2°36.725 9.381991 3.71546 34.425181 31.310101
2004-04-19 07:55:09 51°11.672 2°36.741 9.375741 3.715038 34.420831 31.310101
2004-04-19 07:55:14 51°11.686 2°36.758 9.376641 3.715144 34.423492 31.613486
2004-04-19 07:55:20 51°11.703 2°36.777 9.369395 3.714722 34.419142 31.95058
2004-04-19 07:55:24 51°11.714 2°36.791 9.370958 3.714722 34.417569 31.95058
2004-04-19 07:55:29 51°11.729 2°36.808 9.370958 3.714722 34.417569 31.95058
2004-04-19 07:55:34 51°11.742 2°36.824 9.364138 3.714827 34.419443 31.984289
2004-04-19 07:55:40 51°11.76 2°36.844 9.363333 3.714511 34.420899 31.883161
2004-04-19 07:55:44 51°11.771 2°36.856 9.359875 3.714406 34.422172 31.883161
2004-04-19 07:55:49 51°11.785 2°36.873 9.364849 3.714195 34.42393 32.119127
2004-04-19 07:55:54 51°11.8 2°36.889 9.36016 3.714301 34.425805 32.253965
2004-04-19 07:55:59 51°11.814 2°36.905 9.36016 3.714301 34.425805 32.253965
2004-04-19 07:56:04 51°11.829 2°36.921 9.35817 3.713774 34.4243 32.692187
2004-04-19 07:56:09 51°11.844 2°36.937 9.358076 3.713141 34.419347 32.793315
2004-04-19 07:56:14 51°11.858 2°36.953 9.351586 3.713352 34.423884 32.152836
2004-04-19 07:56:20 51°11.875 2°36.972 9.351444 3.713352 34.424671 32.624768
2004-04-19 07:56:24 51°11.887 2°36.984 9.352581 3.712931 34.421893 32.355093
2004-04-19 07:56:29 51°11.902 2°37 9.352581 3.712931 34.421893 32.355093
2004-04-19 07:56:34 51°11.916 2°37.016 9.352344 3.713142 34.42643 32.220255
2004-04-19 07:56:39 51°11.93 2°37.033 9.352581 3.713142 34.428792 31.815742
2004-04-19 07:56:44 51°11.945 2°37.049 9.352297 3.713142 34.431155 31.647195
2004-04-19 07:56:49 51°11.959 2°37.065 9.353576 3.713247 34.433818 31.276392
2004-04-19 07:56:54 51°11.974 2°37.081 9.357886 3.713142 34.431942 31.242683
2004-04-19 07:57:00 51°11.991 2°37.1 9.357886 3.713142 34.431942 31.242683
2004-04-19 07:57:04 51°12.003 2°37.112 9.360349 3.713247 34.431456 31.208973
2004-04-19 07:57:09 51°12.017 2°37.128 9.359639 3.713247 34.433031 30.939298
2004-04-19 07:57:14 51°12.032 2°37.144 9.362291 3.713563 34.437083 30.433657
2004-04-19 07:57:19 51°12.047 2°37.16 9.365417 3.713774 34.43611 30.939298
2004-04-19 07:57:24 51°12.061 2°37.176 9.367311 3.713879 34.437986 30.669623
2004-04-19 07:57:29 51°12.075 2°37.192 9.367311 3.713879 34.437986 30.669623
2004-04-19 07:57:34 51°12.09 2°37.208 9.371526 3.713774 34.434535 30.366238
2004-04-19 07:57:40 51°12.107 2°37.227 9.373847 3.713879 34.434048 30.939298
2004-04-19 07:57:44 51°12.119 2°37.24 9.379624 3.714195 34.43495 30.197691
2004-04-19 07:57:49 51°12.133 2°37.256 9.380902 3.714512 34.435853 30.399947
2004-04-19 07:57:54 51°12.148 2°37.271 9.38398 3.714933 34.437843 30.298819
2004-04-19 07:58:00 51°12.165 2°37.29 9.38398 3.714933 34.437843 30.298819
2004-04-19 07:58:04 51°12.177 2°37.303 9.388194 3.715355 34.439833 30.399947
2004-04-19 07:58:10 51°12.194 2°37.322 9.392218 3.71546 34.439346 30.130272
2004-04-19 07:58:14 51°12.206 2°37.335 9.396147 3.715565 34.437285 30.163982
2004-04-19 07:58:18 51°12.217 2°37.347 9.398135 3.715671 34.434438 30.130272
2004-04-19 07:58:24 51°12.235 2°37.366 9.400881 3.715776 34.432378 30.332529
2004-04-19 07:58:29 51°12.25 2°37.381 9.400881 3.715776 34.432378 30.332529
2004-04-19 07:58:34 51°12.264 2°37.397 9.403721 3.716408 34.436543 30.26511
2004-04-19 07:58:38 51°12.276 2°37.409 9.409116 3.716514 34.432909 30.737042
2004-04-19 07:58:44 51°12.293 2°37.428 9.410158 3.716724 34.432724 30.433657
2004-04-19 07:58:49 51°12.307 2°37.445 9.414038 3.716619 34.430064 30.501076
2004-04-19 07:58:54 51°12.322 2°37.461 9.415316 3.71704 34.43048 30.534785